Wetterdaten: Samstag, 28.01.2023
Datum Zeit Temp. Aussen Temp. o. S. Temp +5cm Feuchte Auss Luftdruck Regen Sonnenschein Regendauer Solar Windben Empfang
28.01.2023 00:00 3,1 C 2,8 C -0,6 C 88 % 1028,4 hPa 0,0 l/m 0 min 0 min 0 W/m 6,4 km/h (2 Bft) 97,87 %
28.01.2023 00:02 3,1 C 2,8 C -0,6 C 88 % 1028,5 hPa 0,0 l/m 0 min 0 min 0 W/m 6,4 km/h (2 Bft) 97,67 %
28.01.2023 00:04 3,1 C 2,8 C -0,6 C 88 % 1028,5 hPa 0,0 l/m 0 min 0 min 0 W/m 9,7 km/h (2 Bft) 97,87 %
28.01.2023 00:07 3,1 C 2,8 C -0,6 C 88 % 1028,5 hPa 0,0 l/m 0 min 0 min 0 W/m 6,4 km/h (2 Bft) 95,71 %
28.01.2023 00:14 3,1 C 2,2 C -0,6 C 89 % 1028,5 hPa 0,0 l/m 0 min 0 min 0 W/m 6,4 km/h (2 Bft) 97,83 %
28.01.2023 00:16 3,1 C 2,2 C -0,6 C 89 % 1028,6 hPa 0,0 l/m 0 min 0 min 0 W/m 0,0 km/h (0 Bft) 95,74 %
28.01.2023 00:18 3,1 C 2,2 C -0,6 C 88 % 1028,6 hPa 0,0 l/m 0 min 0 min 0 W/m 0,0 km/h (0 Bft) 97,87 %
28.01.2023 00:20 3,1 C 2,2 C -0,6 C 89 % 1028,6 hPa 0,0 l/m 0 min 0 min 0 W/m 0,0 km/h (0 Bft) 97,87 %
28.01.2023 00:22 3,0 C 2,2 C -0,6 C 89 % 1028,6 hPa 0,0 l/m 0 min 0 min 0 W/m 12,9 km/h (3 Bft) 95,74 %
28.01.2023 00:24 3,0 C 2,2 C -0,6 C 89 % 1028,6 hPa 0,0 l/m 0 min 0 min 0 W/m 9,7 km/h (2 Bft) 97,87 %
28.01.2023 00:26 3,0 C 2,2 C -0,6 C 89 % 1028,6 hPa 0,0 l/m 0 min 0 min 0 W/m 6,4 km/h (2 Bft) 97,87 %
28.01.2023 00:28 3,0 C 2,2 C -0,6 C 89 % 1028,6 hPa 0,0 l/m 0 min 0 min 0 W/m 12,9 km/h (3 Bft) 95,65 %
28.01.2023 00:30 2,9 C 2,2 C -0,6 C 89 % 1028,7 hPa 0,0 l/m 0 min 0 min 0 W/m 6,4 km/h (2 Bft) 97,87 %
28.01.2023 00:32 2,9 C 2,2 C -0,6 C 89 % 1028,7 hPa 0,0 l/m 0 min 0 min 0 W/m 9,7 km/h (2 Bft) 95,74 %
28.01.2023 00:34 2,9 C 2,2 C -0,6 C 89 % 1028,7 hPa 0,0 l/m 0 min 0 min 0 W/m 9,7 km/h (2 Bft) 97,87 %
28.01.2023 00:36 2,9 C 2,2 C -0,6 C 89 % 1028,7 hPa 0,0 l/m 0 min 0 min 0 W/m 6,4 km/h (2 Bft) 95,74 %
28.01.2023 00:38 2,9 C 2,2 C -0,6 C 89 % 1028,7 hPa 0,0 l/m 0 min 0 min 0 W/m 6,4 km/h (2 Bft) 95,74 %
28.01.2023 00:40 2,9 C 2,2 C -0,6 C 89 % 1028,7 hPa 0,0 l/m 0 min 0 min 0 W/m 6,4 km/h (2 Bft) 97,87 %
28.01.2023 00:42 2,9 C 2,2 C -0,6 C 89 % 1028,7 hPa 0,0 l/m 0 min 0 min 0 W/m 6,4 km/h (2 Bft) 97,83 %
28.01.2023 00:44 2,9 C 2,2 C -0,6 C 89 % 1028,8 hPa 0,0 l/m 0 min 0 min 0 W/m 3,2 km/h (1 Bft) 53,33 %
28.01.2023 00:46 2,9 C 2,2 C -0,6 C 89 % 1028,7 hPa 0,0 l/m 0 min 0 min 0 W/m 6,4 km/h (2 Bft) 92,31 %
28.01.2023 00:48 2,9 C 2,2 C -0,6 C 89 % 1028,8 hPa 0,0 l/m 0 min 0 min 0 W/m 9,7 km/h (2 Bft) 95,74 %
28.01.2023 00:50 2,8 C 2,2 C -0,6 C 89 % 1028,8 hPa 0,0 l/m 0 min 0 min 0 W/m 6,4 km/h (2 Bft) 95,74 %
28.01.2023 00:52 2,8 C 2,2 C -0,6 C 89 % 1028,7 hPa 0,0 l/m 0 min 0 min 0 W/m 6,4 km/h (2 Bft) 97,83 %
28.01.2023 00:54 2,8 C 2,2 C -0,6 C 89 % 1028,7 hPa 0,0 l/m 0 min 0 min 0 W/m 9,7 km/h (2 Bft) 97,87 %
28.01.2023 00:56 2,8 C 2,2 C -0,6 C 89 % 1028,7 hPa 0,0 l/m 0 min 0 min 0 W/m 9,7 km/h (2 Bft) 97,87 %
28.01.2023 00:58 2,8 C 2,2 C -0,6 C 89 % 1028,7 hPa 0,0 l/m 0 min 0 min 0 W/m 16,1 km/h (3 Bft) 95,74 %
28.01.2023 01:00 2,8 C 2,2 C -0,6 C 89 % 1028,7 hPa 0,0 l/m 0 min 0 min 0 W/m 6,4 km/h (2 Bft) 93,62 %
28.01.2023 01:02 2,8 C 2,2 C -0,6 C 89 % 1028,7 hPa 0,0 l/m 0 min 0 min 0 W/m 6,4 km/h (2 Bft) 97,87 %
28.01.2023 01:04 2,8 C 2,2 C -0,6 C 89 % 1028,6 hPa 0,0 l/m 0 min 0 min 0 W/m 9,7 km/h (2 Bft) 97,87 %
28.01.2023 01:06 2,8 C 2,2 C -0,6 C 89 % 1028,6 hPa 0,0 l/m 0 min 0 min 0 W/m 9,7 km/h (2 Bft) 95,74 %
28.01.2023 01:08 2,8 C 2,2 C -0,6 C 89 % 1028,7 hPa 0,0 l/m 0 min 0 min 0 W/m 3,2 km/h (1 Bft) 97,87 %
28.01.2023 01:10 2,8 C 2,2 C -0,6 C 89 % 1028,7 hPa 0,0 l/m 0 min 0 min 0 W/m 6,4 km/h (2 Bft) 97,87 %
28.01.2023 01:12 2,7 C 2,2 C -0,6 C 89 % 1028,7 hPa 0,0 l/m 0 min 0 min 0 W/m 6,4 km/h (2 Bft) 97,87 %
28.01.2023 01:14 2,8 C 2,2 C -0,6 C 89 % 1028,7 hPa 0,0 l/m 0 min 0 min 0 W/m 6,4 km/h (2 Bft) 97,87 %
28.01.2023 01:16 2,7 C 2,2 C -0,6 C 89 % 1028,7 hPa 0,0 l/m 0 min 0 min 0 W/m 9,7 km/h (2 Bft) 95,74 %
28.01.2023 01:18 2,7 C 2,2 C -0,6 C 89 % 1028,7 hPa 0,0 l/m 0 min 0 min 0 W/m 6,4 km/h (2 Bft) 95,74 %
28.01.2023 01:20 2,7 C 2,2 C -0,6 C 89 % 1028,6 hPa 0,0 l/m 0 min 0 min 0 W/m 6,4 km/h (2 Bft) 100,00 %
28.01.2023 01:22 2,7 C 2,2 C -0,6 C 89 % 1028,6 hPa 0,0 l/m 0 min 0 min 0 W/m 6,4 km/h (2 Bft) 100,00 %
28.01.2023 01:24 2,7 C 2,2 C -0,6 C 89 % 1028,6 hPa 0,0 l/m 0 min 0 min 0 W/m 3,2 km/h (1 Bft) 100,00 %
28.01.2023 01:26 2,7 C 2,2 C -0,6 C 89 % 1028,6 hPa 0,0 l/m 0 min 0 min 0 W/m 6,4 km/h (2 Bft) 100,00 %
28.01.2023 01:28 2,7 C 2,2 C -0,6 C 89 % 1028,6 hPa 0,0 l/m 0 min 0 min 0 W/m 6,4 km/h (2 Bft) 95,74 %
28.01.2023 01:30 2,7 C 2,2 C -0,6 C 89 % 1028,6 hPa 0,0 l/m 0 min 0 min 0 W/m 3,2 km/h (1 Bft) 100,00 %
28.01.2023 01:32 2,7 C 2,2 C -0,6 C 89 % 1028,5 hPa 0,0 l/m 0 min 0 min 0 W/m 3,2 km/h (1 Bft) 100,00 %
28.01.2023 01:34 2,7 C 2,2 C -0,6 C 89 % 1028,6 hPa 0,0 l/m 0 min 0 min 0 W/m 6,4 km/h (2 Bft) 100,00 %
28.01.2023 01:36 2,7 C 2,2 C -0,6 C 89 % 1028,6 hPa 0,0 l/m 0 min 0 min 0 W/m 3,2 km/h (1 Bft) 100,00 %
28.01.2023 01:38 2,7 C 2,2 C -0,6 C 89 % 1028,6 hPa 0,0 l/m 0 min 0 min 0 W/m 6,4 km/h (2 Bft) 92,59 %
28.01.2023 01:40 2,7 C 2,2 C -0,6 C 89 % 1028,6 hPa 0,0 l/m 0 min 0 min 0 W/m 3,2 km/h (1 Bft) 95,74 %
28.01.2023 01:42 2,7 C 2,2 C -0,6 C 89 % 1028,6 hPa 0,0 l/m 0 min 0 min 0 W/m 3,2 km/h (1 Bft) 97,87 %
28.01.2023 01:44 2,7 C 2,2 C -0,6 C 89 % 1028,6 hPa 0,0 l/m 0 min 0 min 0 W/m 6,4 km/h (2 Bft) 95,74 %
28.01.2023 01:46 2,7 C 2,2 C -0,6 C 89 % 1028,6 hPa 0,0 l/m 0 min 0 min 0 W/m 3,2 km/h (1 Bft) 97,83 %
28.01.2023 01:48 2,7 C 2,2 C -0,6 C 89 % 1028,6 hPa 0,0 l/m 0 min 0 min 0 W/m 9,7 km/h (2 Bft) 93,62 %
28.01.2023 01:50 2,6 C 2,2 C -0,6 C 89 % 1028,6 hPa 0,0 l/m 0 min 0 min 0 W/m 6,4 km/h (2 Bft) 95,74 %
28.01.2023 01:52 2,6 C 2,2 C -1,1 C 89 % 1028,7 hPa 0,0 l/m 0 min 0 min 0 W/m 6,4 km/h (2 Bft) 97,87 %
28.01.2023 01:54 2,6 C 2,2 C -1,1 C 89 % 1028,6 hPa 0,0 l/m 0 min 0 min 0 W/m 9,7 km/h (2 Bft) 95,74 %
28.01.2023 01:56 2,6 C 2,2 C -1,1 C 89 % 1028,6 hPa 0,0 l/m 0 min 0 min 0 W/m 6,4 km/h (2 Bft) 97,87 %
28.01.2023 01:58 2,6 C 2,2 C -1,1 C 89 % 1028,6 hPa 0,0 l/m 0 min 0 min 0 W/m 9,7 km/h (2 Bft) 95,74 %
28.01.2023 02:00 2,6 C 2,2 C -1,1 C 89 % 1028,6 hPa 0,0 l/m 0 min 0 min 0 W/m 6,4 km/h (2 Bft) 97,83 %
28.01.2023 02:02 2,6 C 2,2 C -1,1 C 89 % 1028,6 hPa 0,0 l/m 0 min 0 min 0 W/m 6,4 km/h (2 Bft) 93,62 %
28.01.2023 02:04 2,6 C 2,2 C -1,1 C 89 % 1028,6 hPa 0,0 l/m 0 min 0 min 0 W/m 6,4 km/h (2 Bft) 97,87 %
28.01.2023 02:06 2,5 C 2,2 C -1,1 C 89 % 1028,6 hPa 0,0 l/m 0 min 0 min 0 W/m 6,4 km/h (2 Bft) 96,61 %
28.01.2023 02:08 2,5 C 2,2 C -1,1 C 89 % 1028,6 hPa 0,0 l/m 0 min 0 min 0 W/m 6,4 km/h (2 Bft) 97,14 %
28.01.2023 02:10 2,5 C 2,2 C -1,1 C 89 % 1028,6 hPa 0,0 l/m 0 min 0 min 0 W/m 6,4 km/h (2 Bft) 97,87 %
28.01.2023 02:17 2,5 C 1,7 C -1,1 C 89 % 1028,8 hPa 0,0 l/m 0 min 0 min 0 W/m 9,7 km/h (2 Bft) 95,71 %
28.01.2023 02:18 2,4 C 1,7 C -1,1 C 89 % 1028,8 hPa 0,0 l/m 0 min 0 min 0 W/m 6,4 km/h (2 Bft) 100,00 %
28.01.2023 02:20 2,4 C 1,7 C -1,1 C 89 % 1028,7 hPa 0,0 l/m 0 min 0 min 0 W/m 6,4 km/h (2 Bft) 100,00 %
28.01.2023 02:25 2,4 C 1,7 C -1,1 C 89 % 1028,7 hPa 0,0 l/m 0 min 0 min 0 W/m 12,9 km/h (3 Bft) 97,14 %
28.01.2023 02:26 2,4 C 1,7 C -1,1 C 89 % 1028,7 hPa 0,0 l/m 0 min 0 min 0 W/m 3,2 km/h (1 Bft) 100,00 %
28.01.2023 02:28 2,4 C 1,7 C -1,1 C 89 % 1028,7 hPa 0,0 l/m 0 min 0 min 0 W/m 9,7 km/h (2 Bft) 100,00 %
28.01.2023 02:30 2,4 C 1,7 C -1,1 C 89 % 1028,8 hPa 0,0 l/m 0 min 0 min 0 W/m 9,7 km/h (2 Bft) 95,74 %
28.01.2023 02:32 2,3 C 1,7 C -1,1 C 88 % 1028,7 hPa 0,0 l/m 0 min 0 min 0 W/m 6,4 km/h (2 Bft) 95,74 %
28.01.2023 02:34 2,3 C 1,7 C -1,1 C 88 % 1028,7 hPa 0,0 l/m 0 min 0 min 0 W/m 9,7 km/h (2 Bft) 100,00 %
28.01.2023 02:36 2,3 C 1,7 C -1,1 C 88 % 1028,7 hPa 0,0 l/m 0 min 0 min 0 W/m 3,2 km/h (1 Bft) 93,62 %
28.01.2023 02:38 2,3 C 1,7 C -1,1 C 88 % 1028,7 hPa 0,0 l/m 0 min 0 min 0 W/m 6,4 km/h (2 Bft) 92,00 %
28.01.2023 02:40 2,3 C 1,7 C -1,1 C 88 % 1028,7 hPa 0,0 l/m 0 min 0 min 0 W/m 16,1 km/h (3 Bft) 95,65 %
28.01.2023 02:42 2,3 C 1,7 C -1,1 C 88 % 1028,7 hPa 0,0 l/m 0 min 0 min 0 W/m 6,4 km/h (2 Bft) 97,87 %
28.01.2023 02:44 2,3 C 1,7 C -1,1 C 88 % 1028,7 hPa 0,0 l/m 0 min 0 min 0 W/m 3,2 km/h (1 Bft) 95,74 %
28.01.2023 02:46 2,3 C 1,7 C -1,1 C 88 % 1028,8 hPa 0,0 l/m 0 min 0 min 0 W/m 6,4 km/h (2 Bft) 97,87 %
28.01.2023 02:48 2,3 C 1,7 C -1,1 C 88 % 1028,8 hPa 0,0 l/m 0 min 0 min 0 W/m 3,2 km/h (1 Bft) 97,87 %
28.01.2023 02:50 2,3 C 1,7 C -1,1 C 88 % 1028,8 hPa 0,0 l/m 0 min 0 min 0 W/m 6,4 km/h (2 Bft) 95,74 %
28.01.2023 02:52 2,3 C 1,7 C -1,1 C 88 % 1028,9 hPa 0,0 l/m 0 min 0 min 0 W/m 16,1 km/h (3 Bft) 97,83 %
28.01.2023 02:54 2,2 C 1,7 C -1,1 C 88 % 1028,9 hPa 0,0 l/m 0 min 0 min 0 W/m 6,4 km/h (2 Bft) 95,74 %
28.01.2023 02:56 2,2 C 1,7 C -1,1 C 88 % 1028,9 hPa 0,0 l/m 0 min 0 min 0 W/m 9,7 km/h (2 Bft) 95,74 %
28.01.2023 02:58 2,2 C 1,7 C -1,1 C 88 % 1028,9 hPa 0,0 l/m 0 min 0 min 0 W/m 6,4 km/h (2 Bft) 97,87 %
28.01.2023 03:00 2,2 C 1,7 C -1,1 C 88 % 1028,9 hPa 0,0 l/m 0 min 0 min 0 W/m 3,2 km/h (1 Bft) 93,62 %
28.01.2023 03:02 2,2 C 1,7 C -1,1 C 88 % 1028,9 hPa 0,0 l/m 0 min 0 min 0 W/m 9,7 km/h (2 Bft) 95,74 %
28.01.2023 03:04 2,2 C 1,7 C -1,1 C 88 % 1028,9 hPa 0,0 l/m 0 min 0 min 0 W/m 6,4 km/h (2 Bft) 97,83 %
28.01.2023 03:06 2,2 C 1,7 C -1,1 C 88 % 1028,9 hPa 0,0 l/m 0 min 0 min 0 W/m 9,7 km/h (2 Bft) 95,74 %
28.01.2023 03:08 2,2 C 1,7 C -1,1 C 88 % 1028,9 hPa 0,0 l/m 0 min 0 min 0 W/m 6,4 km/h (2 Bft) 95,74 %
28.01.2023 03:10 2,2 C 1,7 C -1,1 C 88 % 1028,9 hPa 0,0 l/m 0 min 0 min 0 W/m 12,9 km/h (3 Bft) 97,87 %
28.01.2023 03:12 2,2 C 1,7 C -1,1 C 88 % 1028,9 hPa 0,0 l/m 0 min 0 min 0 W/m 12,9 km/h (3 Bft) 97,87 %
28.01.2023 03:14 2,1 C 1,7 C -1,1 C 88 % 1028,9 hPa 0,0 l/m 0 min 0 min 0 W/m 6,4 km/h (2 Bft) 97,87 %
28.01.2023 03:16 2,1 C 1,7 C -1,1 C 88 % 1028,9 hPa 0,0 l/m 0 min 0 min 0 W/m 9,7 km/h (2 Bft) 97,87 %
28.01.2023 03:18 2,1 C 1,7 C -1,1 C 88 % 1028,9 hPa 0,0 l/m 0 min 0 min 0 W/m 16,1 km/h (3 Bft) 97,83 %
28.01.2023 03:20 2,1 C 1,7 C -1,1 C 88 % 1029,0 hPa 0,0 l/m 0 min 0 min 0 W/m 12,9 km/h (3 Bft) 97,87 %
28.01.2023 03:22 2,1 C 1,7 C -1,1 C 88 % 1029,0 hPa 0,0 l/m 0 min 0 min 0 W/m 3,2 km/h (1 Bft) 97,87 %
28.01.2023 03:24 2,1 C 1,7 C -1,1 C 88 % 1029,0 hPa 0,0 l/m 0 min 0 min 0 W/m 6,4 km/h (2 Bft) 95,74 %
28.01.2023 03:26 2,1 C 1,7 C -1,1 C 88 % 1029,0 hPa 0,0 l/m 0 min 0 min 0 W/m 12,9 km/h (3 Bft) 93,62 %
28.01.2023 03:28 2,1 C 1,7 C -1,1 C 88 % 1029,0 hPa 0,0 l/m 0 min 0 min 0 W/m 9,7 km/h (2 Bft) 97,87 %
28.01.2023 03:30 2,1 C 1,7 C -1,1 C 88 % 1029,0 hPa 0,0 l/m 0 min 0 min 0 W/m 6,4 km/h (2 Bft) 97,83 %
28.01.2023 03:32 2,1 C 1,7 C -1,1 C 88 % 1029,0 hPa 0,0 l/m 0 min 0 min 0 W/m 6,4 km/h (2 Bft) 97,87 %
28.01.2023 03:34 2,1 C 1,7 C -1,1 C 88 % 1029,1 hPa 0,0 l/m 0 min 0 min 0 W/m 9,7 km/h (2 Bft) 97,87 %
28.01.2023 03:36 2,1 C 1,7 C -1,1 C 88 % 1029,1 hPa 0,0 l/m 0 min 0 min 0 W/m 6,4 km/h (2 Bft) 97,87 %
28.01.2023 03:38 2,1 C 1,7 C -1,1 C 88 % 1029,1 hPa 0,0 l/m 0 min 0 min 0 W/m 3,2 km/h (1 Bft) 97,87 %
28.01.2023 03:40 2,1 C 1,7 C -1,1 C 88 % 1029,1 hPa 0,0 l/m 0 min 0 min 0 W/m 6,4 km/h (2 Bft) 95,74 %
28.01.2023 03:42 2,1 C 1,7 C -1,1 C 88 % 1029,1 hPa 0,0 l/m 0 min 0 min 0 W/m 6,4 km/h (2 Bft) 97,87 %
28.01.2023 03:44 2,1 C 1,7 C -1,1 C 88 % 1029,1 hPa 0,0 l/m 0 min 0 min 0 W/m 9,7 km/h (2 Bft) 97,83 %
28.01.2023 03:46 2,1 C 1,7 C -1,1 C 88 % 1029,1 hPa 0,0 l/m 0 min 0 min 0 W/m 12,9 km/h (3 Bft) 93,62 %
28.01.2023 03:48 2,0 C 1,7 C -1,1 C 87 % 1029,1 hPa 0,0 l/m 0 min 0 min 0 W/m 12,9 km/h (3 Bft) 93,62 %
28.01.2023 03:50 2,0 C 1,7 C -1,1 C 87 % 1029,1 hPa 0,0 l/m 0 min 0 min 0 W/m 9,7 km/h (2 Bft) 97,87 %
28.01.2023 03:52 1,9 C 1,7 C -1,7 C 87 % 1029,1 hPa 0,0 l/m 0 min 0 min 0 W/m 16,1 km/h (3 Bft) 95,74 %
28.01.2023 03:54 1,9 C 1,1 C -1,7 C 87 % 1029,1 hPa 0,0 l/m 0 min 0 min 0 W/m 9,7 km/h (2 Bft) 95,74 %
28.01.2023 03:56 1,9 C 1,1 C -1,7 C 87 % 1029,1 hPa 0,0 l/m 0 min 0 min 0 W/m 6,4 km/h (2 Bft) 97,87 %
28.01.2023 03:58 1,9 C 1,1 C -1,7 C 87 % 1029,1 hPa 0,0 l/m 0 min 0 min 0 W/m 16,1 km/h (3 Bft) 97,83 %
28.01.2023 04:00 1,9 C 1,1 C -1,7 C 87 % 1029,1 hPa 0,0 l/m 0 min 0 min 0 W/m 16,1 km/h (3 Bft) 100,00 %
28.01.2023 04:02 1,9 C 1,1 C -1,7 C 86 % 1029,1 hPa 0,0 l/m 0 min 0 min 0 W/m 9,7 km/h (2 Bft) 100,00 %
28.01.2023 04:04 1,8 C 1,1 C -1,7 C 86 % 1029,1 hPa 0,0 l/m 0 min 0 min 0 W/m 12,9 km/h (3 Bft) 97,87 %
28.01.2023 04:06 1,8 C 1,1 C -1,7 C 86 % 1029,2 hPa 0,0 l/m 0 min 0 min 0 W/m 12,9 km/h (3 Bft) 95,74 %
28.01.2023 04:08 1,8 C 1,1 C -1,7 C 86 % 1029,1 hPa 0,0 l/m 0 min 0 min 0 W/m 9,7 km/h (2 Bft) 97,87 %
28.01.2023 04:10 1,8 C 1,1 C -1,7 C 86 % 1029,1 hPa 0,0 l/m 0 min 0 min 0 W/m 16,1 km/h (3 Bft) 97,83 %
28.01.2023 04:12 1,8 C 1,1 C -1,7 C 86 % 1029,1 hPa 0,0 l/m 0 min 0 min 0 W/m 9,7 km/h (2 Bft) 95,74 %
28.01.2023 04:14 1,8 C 1,1 C -1,7 C 86 % 1029,2 hPa 0,0 l/m 0 min 0 min 0 W/m 9,7 km/h (2 Bft) 97,87 %
28.01.2023 04:16 1,8 C 1,1 C -1,7 C 86 % 1029,1 hPa 0,0 l/m 0 min 0 min 0 W/m 9,7 km/h (2 Bft) 89,36 %
28.01.2023 04:18 1,8 C 1,1 C -1,7 C 86 % 1029,1 hPa 0,0 l/m 0 min 0 min 0 W/m 9,7 km/h (2 Bft) 62,22 %
28.01.2023 04:20 1,7 C 1,1 C -1,7 C 86 % 1029,1 hPa 0,0 l/m 0 min 0 min 0 W/m 12,9 km/h (3 Bft) 95,74 %
28.01.2023 04:22 1,7 C 1,1 C -1,7 C 86 % 1029,1 hPa 0,0 l/m 0 min 0 min 0 W/m 9,7 km/h (2 Bft) 97,87 %
28.01.2023 04:24 1,7 C 1,1 C -1,7 C 86 % 1029,1 hPa 0,0 l/m 0 min 0 min 0 W/m 6,4 km/h (2 Bft) 95,65 %
28.01.2023 04:26 1,7 C 1,1 C -1,7 C 86 % 1029,1 hPa 0,0 l/m 0 min 0 min 0 W/m 12,9 km/h (3 Bft) 93,62 %
28.01.2023 04:28 1,7 C 1,1 C -1,7 C 86 % 1029,1 hPa 0,0 l/m 0 min 0 min 0 W/m 12,9 km/h (3 Bft) 95,74 %
28.01.2023 04:30 1,7 C 1,1 C -1,7 C 86 % 1029,2 hPa 0,0 l/m 0 min 0 min 0 W/m 12,9 km/h (3 Bft) 93,62 %
28.01.2023 04:32 1,7 C 1,1 C -1,7 C 86 % 1029,1 hPa 0,0 l/m 0 min 0 min 0 W/m 12,9 km/h (3 Bft) 95,74 %
28.01.2023 04:34 1,7 C 1,1 C -1,7 C 86 % 1029,1 hPa 0,0 l/m 0 min 0 min 0 W/m 12,9 km/h (3 Bft) 93,62 %
28.01.2023 04:36 1,7 C 1,1 C -1,7 C 86 % 1029,1 hPa 0,0 l/m 0 min 0 min 0 W/m 6,4 km/h (2 Bft) 95,65 %
28.01.2023 04:38 1,7 C 1,1 C -1,7 C 86 % 1029,1 hPa 0,0 l/m 0 min 0 min 0 W/m 9,7 km/h (2 Bft) 93,62 %
28.01.2023 04:40 1,6 C 1,1 C -1,7 C 86 % 1029,1 hPa 0,0 l/m 0 min 0 min 0 W/m 16,1 km/h (3 Bft) 95,74 %
28.01.2023 04:42 1,6 C 1,1 C -1,7 C 86 % 1029,2 hPa 0,0 l/m 0 min 0 min 0 W/m 9,7 km/h (2 Bft) 97,87 %
28.01.2023 04:44 1,6 C 1,1 C -1,7 C 86 % 1029,1 hPa 0,0 l/m 0 min 0 min 0 W/m 9,7 km/h (2 Bft) 97,87 %
28.01.2023 04:46 1,6 C 1,1 C -1,7 C 86 % 1029,2 hPa 0,0 l/m 0 min 0 min 0 W/m 9,7 km/h (2 Bft) 97,87 %
28.01.2023 04:48 1,6 C 1,1 C -1,7 C 86 % 1029,1 hPa 0,0 l/m 0 min 0 min 0 W/m 6,4 km/h (2 Bft) 97,83 %
28.01.2023 04:50 1,6 C 1,1 C -1,7 C 86 % 1029,2 hPa 0,0 l/m 0 min 0 min 0 W/m 12,9 km/h (3 Bft) 95,74 %
28.01.2023 04:52 1,6 C 1,1 C -1,7 C 86 % 1029,1 hPa 0,0 l/m 0 min 0 min 0 W/m 9,7 km/h (2 Bft) 97,87 %
28.01.2023 04:54 1,6 C 1,1 C -1,7 C 86 % 1029,1 hPa 0,0 l/m 0 min 0 min 0 W/m 3,2 km/h (1 Bft) 95,74 %
28.01.2023 04:56 1,6 C 1,1 C -1,7 C 86 % 1029,2 hPa 0,0 l/m 0 min 0 min 0 W/m 9,7 km/h (2 Bft) 95,74 %
28.01.2023 04:58 1,6 C 1,1 C -1,7 C 86 % 1029,2 hPa 0,0 l/m 0 min 0 min 0 W/m 3,2 km/h (1 Bft) 95,74 %
28.01.2023 05:00 1,6 C 1,1 C -1,7 C 86 % 1029,2 hPa 0,0 l/m 0 min 0 min 0 W/m 6,4 km/h (2 Bft) 95,74 %
28.01.2023 05:02 1,6 C 1,1 C -1,7 C 86 % 1029,2 hPa 0,0 l/m 0 min 0 min 0 W/m 9,7 km/h (2 Bft) 100,00 %
28.01.2023 05:04 1,6 C 1,1 C -1,7 C 86 % 1029,2 hPa 0,0 l/m 0 min 0 min 0 W/m 6,4 km/h (2 Bft) 97,87 %
28.01.2023 05:06 1,6 C 1,1 C -1,7 C 86 % 1029,2 hPa 0,0 l/m 0 min 0 min 0 W/m 12,9 km/h (3 Bft) 92,31 %
28.01.2023 05:08 1,6 C 1,1 C -1,7 C 86 % 1029,3 hPa 0,0 l/m 0 min 0 min 0 W/m 9,7 km/h (2 Bft) 60,00 %
28.01.2023 05:10 1,6 C 1,1 C -1,7 C 86 % 1029,2 hPa 0,0 l/m 0 min 0 min 0 W/m 9,7 km/h (2 Bft) 100,00 %
28.01.2023 05:12 1,6 C 1,1 C -1,7 C 86 % 1029,3 hPa 0,0 l/m 0 min 0 min 0 W/m 9,7 km/h (2 Bft) 97,87 %
28.01.2023 05:14 1,5 C 1,1 C -1,7 C 86 % 1029,3 hPa 0,0 l/m 0 min 0 min 0 W/m 9,7 km/h (2 Bft) 100,00 %
28.01.2023 05:16 1,5 C 1,1 C -1,7 C 86 % 1029,3 hPa 0,0 l/m 0 min 0 min 0 W/m 3,2 km/h (1 Bft) 100,00 %
28.01.2023 05:18 1,5 C 1,1 C -1,7 C 86 % 1029,4 hPa 0,0 l/m 0 min 0 min 0 W/m 3,2 km/h (1 Bft) 100,00 %
28.01.2023 05:20 1,5 C 1,1 C -1,7 C 86 % 1029,4 hPa 0,0 l/m 0 min 0 min 0 W/m 6,4 km/h (2 Bft) 100,00 %
28.01.2023 05:22 1,5 C 1,1 C -1,7 C 86 % 1029,4 hPa 0,0 l/m 0 min 0 min 0 W/m 9,7 km/h (2 Bft) 97,87 %
28.01.2023 05:24 1,5 C 1,1 C -1,7 C 85 % 1029,4 hPa 0,0 l/m 0 min 0 min 0 W/m 12,9 km/h (3 Bft) 100,00 %
28.01.2023 05:26 1,4 C 1,1 C -1,7 C 85 % 1029,4 hPa 0,0 l/m 0 min 0 min 0 W/m 3,2 km/h (1 Bft) 100,00 %
28.01.2023 05:28 1,4 C 1,1 C -1,7 C 85 % 1029,4 hPa 0,0 l/m 0 min 0 min 0 W/m 9,7 km/h (2 Bft) 100,00 %
28.01.2023 05:30 1,5 C 1,1 C -1,7 C 85 % 1029,4 hPa 0,0 l/m 0 min 0 min 0 W/m 6,4 km/h (2 Bft) 100,00 %
28.01.2023 05:32 1,4 C 1,1 C -1,7 C 85 % 1029,5 hPa 0,0 l/m 0 min 0 min 0 W/m 6,4 km/h (2 Bft) 97,87 %
28.01.2023 05:34 1,4 C 1,1 C -1,7 C 85 % 1029,5 hPa 0,0 l/m 0 min 0 min 0 W/m 3,2 km/h (1 Bft) 100,00 %
28.01.2023 05:36 1,4 C 1,1 C -1,7 C 85 % 1029,5 hPa 0,0 l/m 0 min 0 min 0 W/m 3,2 km/h (1 Bft) 97,87 %
28.01.2023 05:38 1,4 C 1,1 C -1,7 C 85 % 1029,5 hPa 0,0 l/m 0 min 0 min 0 W/m 3,2 km/h (1 Bft) 100,00 %
28.01.2023 05:40 1,4 C 1,1 C -1,7 C 85 % 1029,5 hPa 0,0 l/m 0 min 0 min 0 W/m 6,4 km/h (2 Bft) 100,00 %
28.01.2023 05:42 1,4 C 1,1 C -1,7 C 85 % 1029,5 hPa 0,0 l/m 0 min 0 min 0 W/m 3,2 km/h (1 Bft) 97,83 %
28.01.2023 05:44 1,4 C 1,1 C -1,7 C 85 % 1029,5 hPa 0,0 l/m 0 min 0 min 0 W/m 6,4 km/h (2 Bft) 100,00 %
28.01.2023 05:46 1,4 C 1,1 C -1,7 C 85 % 1029,5 hPa 0,0 l/m 0 min 0 min 0 W/m 6,4 km/h (2 Bft) 100,00 %
28.01.2023 05:48 1,4 C 1,1 C -1,7 C 85 % 1029,5 hPa 0,0 l/m 0 min 0 min 0 W/m 3,2 km/h (1 Bft) 100,00 %
28.01.2023 05:50 1,4 C 1,1 C -2,2 C 85 % 1029,5 hPa 0,0 l/m 0 min 0 min 0 W/m 6,4 km/h (2 Bft) 100,00 %
28.01.2023 05:52 1,4 C 1,1 C -2,2 C 85 % 1029,5 hPa 0,0 l/m 0 min 0 min 0 W/m 6,4 km/h (2 Bft) 100,00 %
28.01.2023 05:54 1,4 C 1,1 C -2,2 C 85 % 1029,5 hPa 0,0 l/m 0 min 0 min 0 W/m 3,2 km/h (1 Bft) 100,00 %
28.01.2023 05:56 1,4 C 1,1 C -2,2 C 85 % 1029,5 hPa 0,0 l/m 0 min 0 min 0 W/m 6,4 km/h (2 Bft) 100,00 %
28.01.2023 05:58 1,4 C 1,1 C -2,2 C 85 % 1029,5 hPa 0,0 l/m 0 min 0 min 0 W/m 9,7 km/h (2 Bft) 100,00 %
28.01.2023 06:00 1,4 C 1,1 C -2,2 C 85 % 1029,4 hPa 0,0 l/m 0 min 0 min 0 W/m 6,4 km/h (2 Bft) 100,00 %
28.01.2023 06:02 1,4 C 1,1 C -1,7 C 85 % 1029,4 hPa 0,0 l/m 0 min 0 min 0 W/m 9,7 km/h (2 Bft) 95,74 %
28.01.2023 06:04 1,4 C 1,1 C -1,7 C 85 % 1029,5 hPa 0,0 l/m 0 min 0 min 0 W/m 6,4 km/h (2 Bft) 100,00 %
28.01.2023 06:07 1,4 C 1,1 C -2,2 C 85 % 1029,4 hPa 0,0 l/m 0 min 0 min 0 W/m 3,2 km/h (1 Bft) 98,68 %
28.01.2023 06:08 1,4 C 1,1 C -2,2 C 85 % 1029,4 hPa 0,0 l/m 0 min 0 min 0 W/m 6,4 km/h (2 Bft) 100,00 %
28.01.2023 06:10 1,4 C 1,1 C -2,2 C 85 % 1029,4 hPa 0,0 l/m 0 min 0 min 0 W/m 6,4 km/h (2 Bft) 100,00 %
28.01.2023 06:12 1,4 C 1,1 C -2,2 C 84 % 1029,4 hPa 0,0 l/m 0 min 0 min 0 W/m 0,0 km/h (0 Bft) 97,87 %
28.01.2023 06:14 1,4 C 1,1 C -2,2 C 84 % 1029,3 hPa 0,0 l/m 0 min 0 min 0 W/m 0,0 km/h (0 Bft) 95,74 %
28.01.2023 06:16 1,4 C 1,1 C -2,2 C 84 % 1029,3 hPa 0,0 l/m 0 min 0 min 0 W/m 0,0 km/h (0 Bft) 95,74 %
28.01.2023 06:18 1,4 C 1,1 C -2,2 C 85 % 1029,4 hPa 0,0 l/m 0 min 0 min 0 W/m 12,9 km/h (3 Bft) 95,74 %
28.01.2023 06:20 1,4 C 1,1 C -2,2 C 85 % 1029,4 hPa 0,0 l/m 0 min 0 min 0 W/m 6,4 km/h (2 Bft) 93,62 %
28.01.2023 06:22 1,4 C 1,1 C -2,2 C 85 % 1029,4 hPa 0,0 l/m 0 min 0 min 0 W/m 6,4 km/h (2 Bft) 91,30 %
28.01.2023 06:24 1,4 C 1,1 C -2,2 C 85 % 1029,3 hPa 0,0 l/m 0 min 0 min 0 W/m 12,9 km/h (3 Bft) 93,62 %
28.01.2023 06:26 1,4 C 1,1 C -2,2 C 84 % 1029,4 hPa 0,0 l/m 0 min 0 min 0 W/m 9,7 km/h (2 Bft) 95,74 %
28.01.2023 06:28 1,4 C 1,1 C -1,7 C 84 % 1029,4 hPa 0,0 l/m 0 min 0 min 0 W/m 6,4 km/h (2 Bft) 91,49 %
28.01.2023 06:30 1,4 C 1,1 C -2,2 C 84 % 1029,4 hPa 0,0 l/m 0 min 0 min 0 W/m 3,2 km/h (1 Bft) 91,49 %
28.01.2023 06:32 1,4 C 1,1 C -2,2 C 84 % 1029,5 hPa 0,0 l/m 0 min 0 min 0 W/m 3,2 km/h (1 Bft) 93,62 %
28.01.2023 06:34 1,4 C 1,1 C -2,2 C 84 % 1029,5 hPa 0,0 l/m 0 min 0 min 0 W/m 6,4 km/h (2 Bft) 89,36 %
28.01.2023 06:36 1,4 C 1,1 C -2,2 C 84 % 1029,5 hPa 0,0 l/m 0 min 0 min 0 W/m 6,4 km/h (2 Bft) 93,48 %
28.01.2023 06:38 1,4 C 0,6 C -2,2 C 84 % 1029,5 hPa 0,0 l/m 0 min 0 min 0 W/m 3,2 km/h (1 Bft) 93,62 %
28.01.2023 06:40 1,4 C 0,6 C -2,2 C 84 % 1029,5 hPa 0,0 l/m 0 min 0 min 0 W/m 6,4 km/h (2 Bft) 91,49 %
28.01.2023 06:42 1,4 C 0,6 C -2,2 C 84 % 1029,5 hPa 0,0 l/m 0 min 0 min 0 W/m 12,9 km/h (3 Bft) 93,62 %
28.01.2023 06:44 1,4 C 0,6 C -2,2 C 84 % 1029,5 hPa 0,0 l/m 0 min 0 min 0 W/m 3,2 km/h (1 Bft) 87,23 %
28.01.2023 06:46 1,4 C 0,6 C -2,2 C 84 % 1029,5 hPa 0,0 l/m 0 min 0 min 0 W/m 3,2 km/h (1 Bft) 57,45 %
28.01.2023 06:48 1,3 C 0,6 C -2,2 C 84 % 1029,5 hPa 0,0 l/m 0 min 0 min 0 W/m 12,9 km/h (3 Bft) 91,49 %
28.01.2023 06:50 1,3 C 0,6 C -2,2 C 84 % 1029,6 hPa 0,0 l/m 0 min 0 min 0 W/m 9,7 km/h (2 Bft) 93,48 %
28.01.2023 06:52 1,3 C 0,6 C -2,2 C 84 % 1029,6 hPa 0,0 l/m 0 min 0 min 0 W/m 3,2 km/h (1 Bft) 93,62 %
28.01.2023 06:54 1,3 C 0,6 C -2,2 C 84 % 1029,6 hPa 0,0 l/m 0 min 0 min 0 W/m 9,7 km/h (2 Bft) 95,74 %
28.01.2023 06:56 1,3 C 0,6 C -2,2 C 84 % 1029,6 hPa 0,0 l/m 0 min 0 min 0 W/m 6,4 km/h (2 Bft) 97,87 %
28.01.2023 06:58 1,3 C 0,6 C -2,2 C 83 % 1029,7 hPa 0,0 l/m 0 min 0 min 0 W/m 6,4 km/h (2 Bft) 93,62 %
28.01.2023 07:00 1,3 C 0,6 C -2,2 C 83 % 1029,7 hPa 0,0 l/m 0 min 0 min 0 W/m 3,2 km/h (1 Bft) 95,74 %
28.01.2023 07:02 1,3 C 0,6 C -2,2 C 83 % 1029,8 hPa 0,0 l/m 0 min 0 min 0 W/m 9,7 km/h (2 Bft) 93,48 %
28.01.2023 07:04 1,3 C 0,6 C -2,2 C 83 % 1029,8 hPa 0,0 l/m 0 min 0 min 0 W/m 6,4 km/h (2 Bft) 93,62 %
28.01.2023 07:06 1,3 C 0,6 C -2,2 C 83 % 1029,7 hPa 0,0 l/m 0 min 0 min 0 W/m 6,4 km/h (2 Bft) 97,87 %
28.01.2023 07:08 1,3 C 0,6 C -2,2 C 83 % 1029,7 hPa 0,0 l/m 0 min 0 min 0 W/m 3,2 km/h (1 Bft) 100,00 %
28.01.2023 07:10 1,3 C 0,6 C -2,2 C 83 % 1029,7 hPa 0,0 l/m 0 min 0 min 0 W/m 3,2 km/h (1 Bft) 95,74 %
28.01.2023 07:12 1,3 C 0,6 C -2,2 C 83 % 1029,7 hPa 0,0 l/m 0 min 0 min 0 W/m 3,2 km/h (1 Bft) 100,00 %
28.01.2023 07:14 1,3 C 0,6 C -2,2 C 83 % 1029,7 hPa 0,0 l/m 0 min 0 min 0 W/m 6,4 km/h (2 Bft) 95,74 %
28.01.2023 07:19 1,3 C 0,6 C -2,2 C 83 % 1029,7 hPa 0,0 l/m 0 min 0 min 0 W/m 9,7 km/h (2 Bft) 100,00 %
28.01.2023 07:20 1,3 C 0,6 C -2,2 C 83 % 1029,7 hPa 0,0 l/m 0 min 0 min 0 W/m 9,7 km/h (2 Bft) 100,00 %
28.01.2023 07:22 1,2 C 0,6 C -2,2 C 83 % 1029,7 hPa 0,0 l/m 0 min 0 min 0 W/m 3,2 km/h (1 Bft) 97,87 %
28.01.2023 07:24 1,3 C 0,6 C -2,2 C 83 % 1029,8 hPa 0,0 l/m 0 min 0 min 0 W/m 6,4 km/h (2 Bft) 100,00 %
28.01.2023 07:26 1,2 C 0,6 C -2,2 C 83 % 1029,8 hPa 0,0 l/m 0 min 0 min 0 W/m 9,7 km/h (2 Bft) 95,74 %
28.01.2023 07:28 1,2 C 0,6 C -2,2 C 83 % 1029,8 hPa 0,0 l/m 0 min 0 min 0 W/m 3,2 km/h (1 Bft) 100,00 %
28.01.2023 07:30 1,2 C 0,6 C -2,2 C 83 % 1029,8 hPa 0,0 l/m 0 min 0 min 0 W/m 3,2 km/h (1 Bft) 100,00 %
28.01.2023 07:32 1,2 C 0,6 C -2,2 C 83 % 1029,7 hPa 0,0 l/m 0 min 0 min 0 W/m 3,2 km/h (1 Bft) 100,00 %
28.01.2023 07:34 1,2 C 0,6 C -2,2 C 83 % 1029,8 hPa 0,0 l/m 0 min 0 min 0 W/m 6,4 km/h (2 Bft) 100,00 %
28.01.2023 07:36 1,2 C 0,6 C -2,2 C 83 % 1029,7 hPa 0,0 l/m 0 min 0 min 0 W/m 3,2 km/h (1 Bft) 97,87 %
28.01.2023 07:38 1,2 C 0,6 C -2,2 C 83 % 1029,8 hPa 0,0 l/m 0 min 0 min 0 W/m 3,2 km/h (1 Bft) 93,62 %
28.01.2023 07:40 1,2 C 0,6 C -2,2 C 83 % 1029,8 hPa 0,0 l/m 0 min 0 min 0 W/m 3,2 km/h (1 Bft) 97,87 %
28.01.2023 07:42 1,2 C 0,6 C -2,2 C 83 % 1029,9 hPa 0,0 l/m 0 min 0 min 0 W/m 9,7 km/h (2 Bft) 97,83 %
28.01.2023 07:44 1,2 C 0,6 C -2,2 C 83 % 1029,9 hPa 0,0 l/m 0 min 0 min 0 W/m 3,2 km/h (1 Bft) 100,00 %
28.01.2023 07:46 1,2 C 0,6 C -2,2 C 83 % 1029,8 hPa 0,0 l/m 0 min 0 min 0 W/m 6,4 km/h (2 Bft) 91,49 %
28.01.2023 07:48 1,2 C 0,6 C -2,2 C 83 % 1029,8 hPa 0,0 l/m 0 min 0 min 0 W/m 9,7 km/h (2 Bft) 100,00 %
28.01.2023 07:50 1,2 C 0,6 C -2,2 C 83 % 1029,8 hPa 0,0 l/m 0 min 0 min 0 W/m 6,4 km/h (2 Bft) 100,00 %
28.01.2023 07:52 1,2 C 0,6 C -2,2 C 83 % 1029,7 hPa 0,0 l/m 0 min 0 min 0 W/m 6,4 km/h (2 Bft) 100,00 %
28.01.2023 07:54 1,2 C 0,6 C -2,2 C 83 % 1029,8 hPa 0,0 l/m 0 min 0 min 0 W/m 6,4 km/h (2 Bft) 100,00 %
28.01.2023 07:56 1,2 C 0,6 C -2,2 C 83 % 1029,9 hPa 0,0 l/m 0 min 0 min 0 W/m 6,4 km/h (2 Bft) 97,87 %
28.01.2023 07:58 1,2 C 0,6 C -2,2 C 82 % 1029,8 hPa 0,0 l/m 0 min 0 min 0 W/m 3,2 km/h (1 Bft) 100,00 %
28.01.2023 08:00 1,2 C 0,6 C -2,2 C 83 % 1029,8 hPa 0,0 l/m 0 min 0 min 0 W/m 3,2 km/h (1 Bft) 97,87 %
28.01.2023 08:02 1,2 C 0,6 C -2,2 C 83 % 1029,8 hPa 0,0 l/m 0 min 0 min 0 W/m 3,2 km/h (1 Bft) 100,00 %
28.01.2023 08:04 1,2 C 0,6 C -2,2 C 83 % 1029,8 hPa 0,0 l/m 0 min 0 min 0 W/m 6,4 km/h (2 Bft) 97,87 %
28.01.2023 08:06 1,1 C 0,6 C -2,2 C 82 % 1029,8 hPa 0,0 l/m 0 min 0 min 0 W/m 6,4 km/h (2 Bft) 97,87 %
28.01.2023 08:08 1,1 C 0,6 C -2,2 C 82 % 1029,8 hPa 0,0 l/m 0 min 0 min 0 W/m 6,4 km/h (2 Bft) 97,83 %
28.01.2023 08:10 1,1 C 0,6 C -2,2 C 82 % 1029,9 hPa 0,0 l/m 0 min 0 min 0 W/m 3,2 km/h (1 Bft) 97,87 %
28.01.2023 08:12 1,1 C 0,6 C -2,2 C 82 % 1029,9 hPa 0,0 l/m 0 min 0 min 0 W/m 3,2 km/h (1 Bft) 97,87 %
28.01.2023 08:14 1,1 C 0,6 C -2,2 C 82 % 1029,9 hPa 0,0 l/m 0 min 0 min 0 W/m 0,0 km/h (0 Bft) 95,74 %
28.01.2023 08:16 1,1 C 0,6 C -2,2 C 82 % 1029,8 hPa 0,0 l/m 0 min 0 min 0 W/m 0,0 km/h (0 Bft) 95,74 %
28.01.2023 08:18 1,1 C 0,6 C -2,2 C 82 % 1029,8 hPa 0,0 l/m 0 min 0 min 0 W/m 0,0 km/h (0 Bft) 97,87 %
28.01.2023 08:20 1,1 C 0,6 C -2,2 C 82 % 1029,8 hPa 0,0 l/m 0 min 0 min 0 W/m 3,2 km/h (1 Bft) 91,49 %
28.01.2023 08:22 1,1 C 0,6 C -2,2 C 82 % 1029,9 hPa 0,0 l/m 0 min 0 min 0 W/m 3,2 km/h (1 Bft) 54,76 %
28.01.2023 08:24 1,1 C 0,6 C -2,2 C 83 % 1029,9 hPa 0,0 l/m 0 min 0 min 0 W/m 3,2 km/h (1 Bft) 97,87 %
28.01.2023 08:26 1,1 C 0,6 C -2,2 C 83 % 1029,9 hPa 0,0 l/m 0 min 0 min 0 W/m 3,2 km/h (1 Bft) 97,87 %
28.01.2023 08:28 1,1 C 0,6 C -2,2 C 83 % 1029,8 hPa 0,0 l/m 0 min 0 min 5 W/m 3,2 km/h (1 Bft) 97,87 %
28.01.2023 08:30 1,1 C 0,6 C -2,2 C 83 % 1029,8 hPa 0,0 l/m 0 min 0 min 5 W/m 0,0 km/h (0 Bft) 91,49 %
28.01.2023 08:32 1,1 C 0,6 C -2,2 C 83 % 1029,8 hPa 0,0 l/m 0 min 0 min 5 W/m 0,0 km/h (0 Bft) 97,87 %
28.01.2023 08:34 1,1 C 0,6 C -2,2 C 83 % 1029,8 hPa 0,0 l/m 0 min 0 min 0 W/m 3,2 km/h (1 Bft) 95,65 %
28.01.2023 08:36 1,1 C 0,6 C -2,2 C 83 % 1029,8 hPa 0,0 l/m 0 min 0 min 2 W/m 3,2 km/h (1 Bft) 97,87 %
28.01.2023 08:38 1,1 C 0,6 C -2,2 C 83 % 1029,8 hPa 0,0 l/m 0 min 0 min 5 W/m 3,2 km/h (1 Bft) 95,74 %
28.01.2023 08:40 1,1 C 0,6 C -2,2 C 83 % 1029,8 hPa 0,0 l/m 0 min 0 min 5 W/m 3,2 km/h (1 Bft) 97,87 %
28.01.2023 08:42 1,1 C 0,6 C -2,2 C 83 % 1029,9 hPa 0,0 l/m 0 min 0 min 6 W/m 6,4 km/h (2 Bft) 100,00 %
28.01.2023 08:44 1,1 C 0,6 C -2,2 C 83 % 1029,9 hPa 0,0 l/m 0 min 0 min 7 W/m 3,2 km/h (1 Bft) 100,00 %
28.01.2023 08:46 1,1 C 0,6 C -2,2 C 83 % 1029,8 hPa 0,0 l/m 0 min 0 min 9 W/m 3,2 km/h (1 Bft) 97,87 %
28.01.2023 08:48 1,1 C 0,6 C -2,2 C 83 % 1029,9 hPa 0,0 l/m 0 min 0 min 7 W/m 3,2 km/h (1 Bft) 97,83 %
28.01.2023 08:50 1,1 C 0,6 C -2,2 C 83 % 1029,8 hPa 0,0 l/m 0 min 0 min 7 W/m 3,2 km/h (1 Bft) 95,74 %
28.01.2023 08:52 1,1 C 0,6 C -2,2 C 83 % 1029,9 hPa 0,0 l/m 0 min 0 min 7 W/m 0,0 km/h (0 Bft) 97,87 %
28.01.2023 08:54 1,1 C 0,6 C -2,2 C 83 % 1029,8 hPa 0,0 l/m 0 min 0 min 8 W/m 0,0 km/h (0 Bft) 97,87 %
28.01.2023 08:56 1,1 C 0,6 C -2,2 C 83 % 1029,8 hPa 0,0 l/m 0 min 0 min 10 W/m 0,0 km/h (0 Bft) 91,49 %
28.01.2023 08:58 1,1 C 0,6 C -2,2 C 83 % 1029,9 hPa 0,0 l/m 0 min 0 min 18 W/m 0,0 km/h (0 Bft) 97,87 %
28.01.2023 09:00 1,1 C 0,6 C -2,2 C 83 % 1029,9 hPa 0,0 l/m 0 min 0 min 21 W/m 0,0 km/h (0 Bft) 97,83 %
28.01.2023 09:02 1,1 C 0,6 C -2,2 C 83 % 1030,0 hPa 0,0 l/m 0 min 0 min 21 W/m 0,0 km/h (0 Bft) 95,74 %
28.01.2023 09:04 1,1 C 0,6 C -2,2 C 83 % 1030,0 hPa 0,0 l/m 0 min 0 min 21 W/m 0,0 km/h (0 Bft) 97,87 %
28.01.2023 09:06 1,1 C 0,6 C -2,2 C 83 % 1030,2 hPa 0,0 l/m 0 min 0 min 21 W/m 3,2 km/h (1 Bft) 97,92 %
28.01.2023 09:08 1,1 C 0,6 C -2,2 C 84 % 1030,3 hPa 0,0 l/m 0 min 0 min 21 W/m 3,2 km/h (1 Bft) 97,14 %
28.01.2023 09:10 1,1 C 0,6 C -2,2 C 84 % 1030,3 hPa 0,0 l/m 0 min 0 min 21 W/m 12,9 km/h (3 Bft) 98,04 %
28.01.2023 09:12 1,1 C 0,6 C -2,2 C 83 % 1030,3 hPa 0,0 l/m 0 min 0 min 22 W/m 6,4 km/h (2 Bft) 97,87 %
28.01.2023 09:14 1,1 C 0,6 C -2,2 C 83 % 1030,3 hPa 0,0 l/m 0 min 0 min 23 W/m 9,7 km/h (2 Bft) 97,87 %
28.01.2023 09:16 1,1 C 0,6 C -2,2 C 83 % 1030,3 hPa 0,0 l/m 0 min 0 min 23 W/m 9,7 km/h (2 Bft) 97,87 %
28.01.2023 09:18 1,1 C 0,6 C -2,2 C 83 % 1030,3 hPa 0,0 l/m 0 min 0 min 23 W/m 9,7 km/h (2 Bft) 95,74 %
28.01.2023 09:20 1,1 C 1,1 C -2,2 C 83 % 1030,3 hPa 0,0 l/m 0 min 0 min 25 W/m 6,4 km/h (2 Bft) 97,87 %
28.01.2023 09:22 1,1 C 1,1 C -2,2 C 82 % 1030,3 hPa 0,0 l/m 0 min 0 min 26 W/m 6,4 km/h (2 Bft) 97,87 %
28.01.2023 09:24 1,1 C 1,1 C -2,2 C 82 % 1030,3 hPa 0,0 l/m 0 min 0 min 28 W/m 9,7 km/h (2 Bft) 93,48 %
28.01.2023 09:26 1,1 C 1,1 C -2,2 C 82 % 1030,4 hPa 0,0 l/m 0 min 0 min 28 W/m 6,4 km/h (2 Bft) 95,74 %
28.01.2023 09:28 1,1 C 1,1 C -2,2 C 82 % 1030,3 hPa 0,0 l/m 0 min 0 min 26 W/m 3,2 km/h (1 Bft) 100,00 %
28.01.2023 09:30 1,1 C 1,1 C -2,2 C 82 % 1030,4 hPa 0,0 l/m 0 min 0 min 26 W/m 3,2 km/h (1 Bft) 95,74 %
28.01.2023 09:32 1,2 C 1,1 C -2,2 C 82 % 1030,4 hPa 0,0 l/m 0 min 0 min 26 W/m 3,2 km/h (1 Bft) 97,87 %
28.01.2023 09:34 1,2 C 1,1 C -2,2 C 82 % 1030,4 hPa 0,0 l/m 0 min 0 min 28 W/m 3,2 km/h (1 Bft) 97,87 %
28.01.2023 09:36 1,2 C 1,1 C -2,2 C 83 % 1030,4 hPa 0,0 l/m 0 min 0 min 31 W/m 0,0 km/h (0 Bft) 97,83 %
28.01.2023 09:38 1,2 C 1,1 C -2,2 C 83 % 1030,4 hPa 0,0 l/m 0 min 0 min 33 W/m 3,2 km/h (1 Bft) 93,62 %
28.01.2023 09:40 1,2 C 1,1 C -2,2 C 83 % 1030,4 hPa 0,0 l/m 0 min 0 min 37 W/m 3,2 km/h (1 Bft) 97,87 %
28.01.2023 09:42 1,2 C 1,1 C -2,2 C 83 % 1030,4 hPa 0,0 l/m 0 min 0 min 36 W/m 3,2 km/h (1 Bft) 95,74 %
28.01.2023 09:44 1,2 C 1,1 C -2,2 C 83 % 1030,4 hPa 0,0 l/m 0 min 0 min 41 W/m 3,2 km/h (1 Bft) 93,62 %
28.01.2023 09:46 1,3 C 1,1 C -2,2 C 83 % 1030,5 hPa 0,0 l/m 0 min 0 min 44 W/m 3,2 km/h (1 Bft) 97,87 %
28.01.2023 09:48 1,3 C 1,1 C -2,2 C 83 % 1030,5 hPa 0,0 l/m 0 min 0 min 42 W/m 9,7 km/h (2 Bft) 97,83 %
28.01.2023 09:50 1,3 C 1,1 C -2,2 C 83 % 1030,6 hPa 0,0 l/m 0 min 0 min 41 W/m 9,7 km/h (2 Bft) 97,87 %
28.01.2023 09:52 1,3 C 1,1 C -2,2 C 82 % 1030,6 hPa 0,0 l/m 0 min 0 min 36 W/m 9,7 km/h (2 Bft) 97,87 %
28.01.2023 09:54 1,3 C 1,1 C -2,2 C 82 % 1030,6 hPa 0,0 l/m 0 min 0 min 35 W/m 19,3 km/h (3 Bft) 95,74 %
28.01.2023 09:56 1,3 C 1,1 C -2,2 C 82 % 1030,7 hPa 0,0 l/m 0 min 0 min 41 W/m 9,7 km/h (2 Bft) 68,09 %
28.01.2023 09:58 1,3 C 1,1 C -2,2 C 81 % 1030,8 hPa 0,0 l/m 0 min 0 min 41 W/m 6,4 km/h (2 Bft) 79,31 %
28.01.2023 10:00 1,3 C 1,1 C -1,7 C 82 % 1030,8 hPa 0,0 l/m 0 min 0 min 39 W/m 6,4 km/h (2 Bft) 93,62 %
28.01.2023 10:02 1,3 C 1,1 C -1,7 C 81 % 1030,9 hPa 0,0 l/m 0 min 0 min 36 W/m 12,9 km/h (3 Bft) 93,48 %
28.01.2023 10:04 1,3 C 1,1 C -2,2 C 81 % 1031,0 hPa 0,0 l/m 0 min 0 min 37 W/m 16,1 km/h (3 Bft) 95,74 %
28.01.2023 10:06 1,3 C 1,1 C -2,2 C 81 % 1030,9 hPa 0,0 l/m 0 min 0 min 41 W/m 16,1 km/h (3 Bft) 95,74 %
28.01.2023 10:08 1,3 C 1,1 C -2,2 C 81 % 1031,0 hPa 0,0 l/m 0 min 0 min 41 W/m 12,9 km/h (3 Bft) 93,62 %
28.01.2023 10:10 1,3 C 1,1 C -2,2 C 80 % 1031,0 hPa 0,0 l/m 0 min 0 min 40 W/m 12,9 km/h (3 Bft) 93,62 %
28.01.2023 10:12 1,3 C 1,1 C -2,2 C 80 % 1031,0 hPa 0,0 l/m 0 min 0 min 41 W/m 6,4 km/h (2 Bft) 97,56 %
28.01.2023 10:14 1,3 C 1,1 C -2,2 C 80 % 1031,1 hPa 0,0 l/m 0 min 0 min 44 W/m 9,7 km/h (2 Bft) 94,12 %
28.01.2023 10:16 1,3 C 1,1 C -2,2 C 80 % 1031,0 hPa 0,0 l/m 0 min 0 min 46 W/m 9,7 km/h (2 Bft) 97,92 %
28.01.2023 10:18 1,4 C 1,1 C -2,2 C 80 % 1031,0 hPa 0,0 l/m 0 min 0 min 50 W/m 9,7 km/h (2 Bft) 97,87 %
28.01.2023 10:20 1,4 C 1,1 C -2,2 C 80 % 1031,2 hPa 0,0 l/m 0 min 0 min 52 W/m 12,9 km/h (3 Bft) 97,87 %
28.01.2023 10:22 1,4 C 1,1 C -2,2 C 80 % 1031,2 hPa 0,0 l/m 0 min 0 min 49 W/m 9,7 km/h (2 Bft) 93,62 %
28.01.2023 10:24 1,4 C 1,1 C -2,2 C 79 % 1031,1 hPa 0,0 l/m 0 min 0 min 49 W/m 9,7 km/h (2 Bft) 97,87 %
28.01.2023 10:26 1,4 C 1,1 C -2,2 C 79 % 1031,1 hPa 0,0 l/m 0 min 0 min 52 W/m 6,4 km/h (2 Bft) 97,83 %
28.01.2023 10:28 1,4 C 1,1 C -2,2 C 79 % 1031,2 hPa 0,0 l/m 0 min 0 min 49 W/m 9,7 km/h (2 Bft) 97,87 %
28.01.2023 10:30 1,4 C 1,1 C -1,7 C 80 % 1031,2 hPa 0,0 l/m 0 min 0 min 49 W/m 9,7 km/h (2 Bft) 100,00 %
28.01.2023 10:32 1,4 C 1,1 C -1,7 C 80 % 1031,2 hPa 0,0 l/m 0 min 0 min 49 W/m 12,9 km/h (3 Bft) 97,87 %
28.01.2023 10:34 1,4 C 1,1 C -1,7 C 80 % 1031,3 hPa 0,0 l/m 0 min 0 min 47 W/m 9,7 km/h (2 Bft) 97,87 %
28.01.2023 10:36 1,4 C 1,1 C -1,7 C 80 % 1031,3 hPa 0,0 l/m 0 min 0 min 46 W/m 16,1 km/h (3 Bft) 97,87 %
28.01.2023 10:38 1,4 C 1,1 C -2,2 C 80 % 1031,3 hPa 0,0 l/m 0 min 0 min 46 W/m 16,1 km/h (3 Bft) 91,49 %
28.01.2023 10:40 1,4 C 1,1 C -2,2 C 80 % 1031,2 hPa 0,0 l/m 0 min 0 min 47 W/m 12,9 km/h (3 Bft) 100,00 %
28.01.2023 10:42 1,4 C 1,1 C -2,2 C 80 % 1031,3 hPa 0,0 l/m 0 min 0 min 46 W/m 9,7 km/h (2 Bft) 100,00 %
28.01.2023 10:44 1,4 C 1,1 C -2,2 C 80 % 1031,3 hPa 0,0 l/m 0 min 0 min 44 W/m 12,9 km/h (3 Bft) 100,00 %
28.01.2023 10:46 1,4 C 1,1 C -2,2 C 80 % 1031,3 hPa 0,0 l/m 0 min 0 min 44 W/m 9,7 km/h (2 Bft) 100,00 %
28.01.2023 10:48 1,4 C 1,1 C -2,2 C 80 % 1031,3 hPa 0,0 l/m 0 min 0 min 45 W/m 6,4 km/h (2 Bft) 100,00 %
28.01.2023 10:50 1,5 C 1,1 C -2,2 C 80 % 1031,3 hPa 0,0 l/m 0 min 0 min 46 W/m 9,7 km/h (2 Bft) 100,00 %
28.01.2023 10:52 1,5 C 1,1 C -1,7 C 80 % 1031,3 hPa 0,0 l/m 0 min 0 min 49 W/m 6,4 km/h (2 Bft) 100,00 %
28.01.2023 10:54 1,5 C 1,1 C -1,7 C 80 % 1031,4 hPa 0,0 l/m 0 min 0 min 51 W/m 9,7 km/h (2 Bft) 100,00 %
28.01.2023 10:56 1,5 C 1,1 C -1,7 C 80 % 1031,4 hPa 0,0 l/m 0 min 0 min 52 W/m 9,7 km/h (2 Bft) 97,87 %
28.01.2023 10:58 1,5 C 1,1 C -1,7 C 80 % 1031,3 hPa 0,0 l/m 0 min 0 min 55 W/m 12,9 km/h (3 Bft) 97,87 %
28.01.2023 11:00 1,4 C 1,1 C -2,2 C 80 % 1031,3 hPa 0,0 l/m 0 min 0 min 56 W/m 16,1 km/h (3 Bft) 100,00 %
28.01.2023 11:02 1,4 C 1,1 C -2,2 C 80 % 1031,3 hPa 0,0 l/m 0 min 0 min 58 W/m 9,7 km/h (2 Bft) 100,00 %
28.01.2023 11:04 1,4 C 1,1 C -2,2 C 80 % 1031,3 hPa 0,0 l/m 0 min 0 min 61 W/m 3,2 km/h (1 Bft) 97,87 %
28.01.2023 11:06 1,4 C 1,1 C -1,7 C 80 % 1031,4 hPa 0,0 l/m 0 min 0 min 63 W/m 9,7 km/h (2 Bft) 100,00 %
28.01.2023 11:08 1,5 C 1,1 C -2,2 C 80 % 1031,3 hPa 0,0 l/m 0 min 0 min 62 W/m 9,7 km/h (2 Bft) 95,74 %
28.01.2023 11:10 1,5 C 1,1 C -1,7 C 80 % 1031,3 hPa 0,0 l/m 0 min 0 min 68 W/m 9,7 km/h (2 Bft) 97,87 %
28.01.2023 11:12 1,4 C 1,1 C -2,2 C 80 % 1031,3 hPa 0,0 l/m 0 min 0 min 70 W/m 9,7 km/h (2 Bft) 97,87 %
28.01.2023 11:14 1,4 C 1,1 C -2,2 C 80 % 1031,3 hPa 0,0 l/m 0 min 0 min 76 W/m 12,9 km/h (3 Bft) 97,87 %
28.01.2023 11:16 1,4 C 1,1 C -1,7 C 80 % 1031,4 hPa 0,0 l/m 0 min 0 min 75 W/m 12,9 km/h (3 Bft) 97,87 %
28.01.2023 11:18 1,4 C 1,1 C -1,7 C 79 % 1031,3 hPa 0,0 l/m 0 min 0 min 77 W/m 3,2 km/h (1 Bft) 97,83 %
28.01.2023 11:20 1,4 C 1,7 C -1,7 C 80 % 1031,3 hPa 0,0 l/m 0 min 0 min 83 W/m 6,4 km/h (2 Bft) 97,87 %
28.01.2023 11:22 1,4 C 1,7 C -1,7 C 79 % 1031,3 hPa 0,0 l/m 0 min 0 min 91 W/m 9,7 km/h (2 Bft) 97,87 %
28.01.2023 11:24 1,4 C 1,7 C -1,7 C 79 % 1031,2 hPa 0,0 l/m 0 min 0 min 106 W/m 12,9 km/h (3 Bft) 97,87 %
28.01.2023 11:26 1,4 C 1,7 C -1,7 C 79 % 1031,2 hPa 0,0 l/m 0 min 0 min 119 W/m 12,9 km/h (3 Bft) 95,74 %
28.01.2023 11:28 1,5 C 1,7 C -1,7 C 79 % 1031,2 hPa 0,0 l/m 0 min 0 min 116 W/m 9,7 km/h (2 Bft) 97,87 %
28.01.2023 11:30 1,5 C 1,7 C -1,7 C 79 % 1031,2 hPa 0,0 l/m 0 min 0 min 113 W/m 12,9 km/h (3 Bft) 97,87 %
28.01.2023 11:32 1,5 C 1,7 C -1,7 C 79 % 1031,2 hPa 0,0 l/m 0 min 0 min 108 W/m 9,7 km/h (2 Bft) 97,83 %
28.01.2023 11:34 1,5 C 2,2 C -1,7 C 79 % 1031,2 hPa 0,0 l/m 0 min 0 min 108 W/m 9,7 km/h (2 Bft) 95,74 %
28.01.2023 11:36 1,6 C 2,2 C -1,7 C 79 % 1031,1 hPa 0,0 l/m 0 min 0 min 111 W/m 9,7 km/h (2 Bft) 93,62 %
28.01.2023 11:38 1,6 C 2,2 C -1,7 C 79 % 1031,2 hPa 0,0 l/m 0 min 0 min 117 W/m 12,9 km/h (3 Bft) 53,19 %
28.01.2023 11:40 1,6 C 2,2 C -1,7 C 79 % 1031,2 hPa 0,0 l/m 0 min 0 min 118 W/m 9,7 km/h (2 Bft) 97,87 %
28.01.2023 11:42 1,6 C 2,2 C -1,7 C 79 % 1031,1 hPa 0,0 l/m 0 min 0 min 121 W/m 16,1 km/h (3 Bft) 97,87 %
28.01.2023 11:44 1,6 C 2,2 C -1,7 C 79 % 1031,2 hPa 0,0 l/m 0 min 0 min 132 W/m 6,4 km/h (2 Bft) 95,65 %
28.01.2023 11:46 1,6 C 2,2 C -1,7 C 79 % 1031,2 hPa 0,0 l/m 0 min 0 min 139 W/m 6,4 km/h (2 Bft) 95,74 %
28.01.2023 11:48 1,6 C 2,2 C -1,7 C 79 % 1031,3 hPa 0,0 l/m 0 min 0 min 122 W/m 3,2 km/h (1 Bft) 95,74 %
28.01.2023 11:50 1,6 C 2,2 C -1,7 C 79 % 1031,3 hPa 0,0 l/m 0 min 0 min 107 W/m 3,2 km/h (1 Bft) 97,87 %
28.01.2023 11:52 1,7 C 2,2 C -1,7 C 79 % 1031,3 hPa 0,0 l/m 0 min 0 min 95 W/m 6,4 km/h (2 Bft) 95,74 %
28.01.2023 11:54 1,7 C 2,2 C -1,7 C 79 % 1031,3 hPa 0,0 l/m 0 min 0 min 92 W/m 6,4 km/h (2 Bft) 97,87 %
28.01.2023 11:56 1,7 C 2,2 C -1,7 C 79 % 1031,3 hPa 0,0 l/m 0 min 0 min 98 W/m 12,9 km/h (3 Bft) 97,83 %
28.01.2023 11:58 1,7 C 2,2 C -1,7 C 79 % 1031,4 hPa 0,0 l/m 0 min 0 min 97 W/m 9,7 km/h (2 Bft) 97,87 %
28.01.2023 12:00 1,7 C 2,2 C -1,7 C 79 % 1031,3 hPa 0,0 l/m 0 min 0 min 104 W/m 9,7 km/h (2 Bft) 97,87 %
28.01.2023 12:02 1,7 C 2,2 C -1,7 C 79 % 1031,3 hPa 0,0 l/m 0 min 0 min 107 W/m 6,4 km/h (2 Bft) 97,87 %
28.01.2023 12:04 1,7 C 2,2 C -1,7 C 79 % 1031,3 hPa 0,0 l/m 0 min 0 min 96 W/m 9,7 km/h (2 Bft) 97,87 %
28.01.2023 12:07 1,7 C 2,2 C -1,7 C 78 % 1031,4 hPa 0,0 l/m 0 min 0 min 87 W/m 9,7 km/h (2 Bft) 97,14 %
28.01.2023 12:08 1,7 C 2,2 C -1,7 C 78 % 1031,4 hPa 0,0 l/m 0 min 0 min 86 W/m 9,7 km/h (2 Bft) 100,00 %
28.01.2023 12:12 1,7 C 1,7 C -1,7 C 78 % 1031,5 hPa 0,0 l/m 0 min 0 min 74 W/m 6,4 km/h (2 Bft) 98,11 %
28.01.2023 12:14 1,7 C 1,7 C -1,7 C 78 % 1031,6 hPa 0,0 l/m 0 min 0 min 71 W/m 6,4 km/h (2 Bft) 97,87 %
28.01.2023 12:16 1,7 C 1,7 C -1,7 C 78 % 1031,6 hPa 0,0 l/m 0 min 0 min 69 W/m 9,7 km/h (2 Bft) 97,87 %
28.01.2023 12:18 1,7 C 1,7 C -1,7 C 78 % 1031,6 hPa 0,0 l/m 0 min 0 min 66 W/m 9,7 km/h (2 Bft) 97,87 %
28.01.2023 12:20 1,6 C 1,7 C -1,7 C 78 % 1031,6 hPa 0,0 l/m 0 min 0 min 69 W/m 9,7 km/h (2 Bft) 97,87 %
28.01.2023 12:22 1,6 C 1,7 C -1,7 C 78 % 1031,6 hPa 0,0 l/m 0 min 0 min 71 W/m 12,9 km/h (3 Bft) 93,62 %
28.01.2023 12:24 1,6 C 1,7 C -1,7 C 78 % 1031,6 hPa 0,0 l/m 0 min 0 min 77 W/m 12,9 km/h (3 Bft) 95,65 %
28.01.2023 12:26 1,6 C 1,7 C -1,7 C 78 % 1031,6 hPa 0,0 l/m 0 min 0 min 77 W/m 12,9 km/h (3 Bft) 97,87 %
28.01.2023 12:28 1,6 C 1,7 C -1,7 C 78 % 1031,5 hPa 0,0 l/m 0 min 0 min 79 W/m 16,1 km/h (3 Bft) 97,87 %
28.01.2023 12:30 1,6 C 1,7 C -1,7 C 78 % 1031,4 hPa 0,0 l/m 0 min 0 min 84 W/m 16,1 km/h (3 Bft) 97,87 %
28.01.2023 12:32 1,6 C 1,7 C -1,7 C 78 % 1031,4 hPa 0,0 l/m 0 min 0 min 87 W/m 9,7 km/h (2 Bft) 95,74 %
28.01.2023 12:34 1,5 C 1,1 C -1,7 C 78 % 1031,4 hPa 0,0 l/m 0 min 0 min 90 W/m 12,9 km/h (3 Bft) 95,74 %
28.01.2023 12:36 1,4 C 1,1 C -1,7 C 78 % 1031,4 hPa 0,0 l/m 0 min 0 min 87 W/m 9,7 km/h (2 Bft) 97,83 %
28.01.2023 12:38 1,4 C 1,1 C -1,7 C 78 % 1031,4 hPa 0,0 l/m 0 min 0 min 83 W/m 12,9 km/h (3 Bft) 95,74 %
28.01.2023 12:40 1,4 C 1,1 C -1,7 C 78 % 1031,4 hPa 0,0 l/m 0 min 0 min 82 W/m 9,7 km/h (2 Bft) 93,62 %
28.01.2023 12:42 1,4 C 1,1 C -1,7 C 78 % 1031,4 hPa 0,0 l/m 0 min 0 min 81 W/m 12,9 km/h (3 Bft) 98,00 %
28.01.2023 12:44 1,4 C 1,1 C -1,7 C 78 % 1031,3 hPa 0,0 l/m 0 min 0 min 84 W/m 12,9 km/h (3 Bft) 97,87 %
28.01.2023 12:46 1,4 C 1,1 C -1,7 C 78 % 1031,3 hPa 0,0 l/m 0 min 0 min 92 W/m 12,9 km/h (3 Bft) 95,74 %
28.01.2023 12:48 1,4 C 1,7 C -1,7 C 78 % 1031,3 hPa 0,0 l/m 0 min 0 min 99 W/m 6,4 km/h (2 Bft) 97,83 %
28.01.2023 12:50 1,4 C 1,7 C -1,7 C 79 % 1031,3 hPa 0,0 l/m 0 min 0 min 94 W/m 9,7 km/h (2 Bft) 95,74 %
28.01.2023 12:52 1,4 C 1,7 C -1,7 C 79 % 1031,3 hPa 0,0 l/m 0 min 0 min 90 W/m 16,1 km/h (3 Bft) 97,87 %
28.01.2023 12:54 1,4 C 1,7 C -1,7 C 79 % 1031,3 hPa 0,0 l/m 0 min 0 min 82 W/m 6,4 km/h (2 Bft) 95,74 %
28.01.2023 12:56 1,4 C 1,1 C -2,2 C 78 % 1031,2 hPa 0,0 l/m 0 min 0 min 77 W/m 9,7 km/h (2 Bft) 97,87 %
28.01.2023 12:58 1,4 C 1,1 C -2,2 C 78 % 1031,2 hPa 0,0 l/m 0 min 0 min 74 W/m 12,9 km/h (3 Bft) 97,87 %
28.01.2023 13:00 1,4 C 1,1 C -1,7 C 78 % 1031,3 hPa 0,0 l/m 0 min 0 min 70 W/m 6,4 km/h (2 Bft) 95,65 %
28.01.2023 13:02 1,4 C 1,1 C -1,7 C 78 % 1031,3 hPa 0,0 l/m 0 min 0 min 71 W/m 16,1 km/h (3 Bft) 95,74 %
28.01.2023 13:04 1,4 C 1,1 C -2,2 C 79 % 1031,3 hPa 0,0 l/m 0 min 0 min 70 W/m 16,1 km/h (3 Bft) 97,87 %
28.01.2023 13:06 1,4 C 1,1 C -2,2 C 79 % 1031,2 hPa 0,0 l/m 0 min 0 min 73 W/m 16,1 km/h (3 Bft) 97,87 %
28.01.2023 13:08 1,4 C 1,1 C -2,2 C 79 % 1031,2 hPa 0,0 l/m 0 min 0 min 75 W/m 12,9 km/h (3 Bft) 97,87 %
28.01.2023 13:10 1,3 C 1,1 C -2,2 C 78 % 1031,2 hPa 0,0 l/m 0 min 0 min 76 W/m 12,9 km/h (3 Bft) 97,87 %
28.01.2023 13:12 1,3 C 1,1 C -2,2 C 78 % 1031,1 hPa 0,0 l/m 0 min 0 min 70 W/m 12,9 km/h (3 Bft) 100,00 %
28.01.2023 13:14 1,3 C 1,1 C -2,2 C 78 % 1031,1 hPa 0,0 l/m 0 min 0 min 77 W/m 9,7 km/h (2 Bft) 97,83 %
28.01.2023 13:16 1,3 C 1,1 C -2,2 C 79 % 1031,0 hPa 0,0 l/m 0 min 0 min 87 W/m 12,9 km/h (3 Bft) 100,00 %
28.01.2023 13:18 1,3 C 1,1 C -2,2 C 78 % 1031,0 hPa 0,0 l/m 0 min 0 min 98 W/m 9,7 km/h (2 Bft) 100,00 %
28.01.2023 13:20 1,3 C 1,1 C -2,2 C 79 % 1031,0 hPa 0,0 l/m 0 min 0 min 105 W/m 9,7 km/h (2 Bft) 97,87 %
28.01.2023 13:22 1,3 C 1,7 C -2,2 C 79 % 1030,9 hPa 0,0 l/m 0 min 0 min 108 W/m 9,7 km/h (2 Bft) 100,00 %
28.01.2023 13:24 1,3 C 1,7 C -1,7 C 79 % 1030,8 hPa 0,0 l/m 0 min 0 min 106 W/m 6,4 km/h (2 Bft) 100,00 %
28.01.2023 13:26 1,3 C 1,7 C -1,7 C 79 % 1030,8 hPa 0,0 l/m 0 min 0 min 98 W/m 9,7 km/h (2 Bft) 97,83 %
28.01.2023 13:28 1,3 C 1,7 C -1,7 C 79 % 1030,9 hPa 0,0 l/m 0 min 0 min 97 W/m 9,7 km/h (2 Bft) 100,00 %
28.01.2023 13:30 1,3 C 1,7 C -1,7 C 79 % 1031,0 hPa 0,0 l/m 0 min 0 min 100 W/m 6,4 km/h (2 Bft) 100,00 %
28.01.2023 13:32 1,4 C 1,7 C -1,7 C 79 % 1031,0 hPa 0,0 l/m 0 min 0 min 106 W/m 9,7 km/h (2 Bft) 97,87 %
28.01.2023 13:34 1,4 C 1,7 C -1,7 C 79 % 1030,7 hPa 0,0 l/m 0 min 0 min 117 W/m 6,4 km/h (2 Bft) 97,87 %
28.01.2023 13:36 1,4 C 1,7 C -1,7 C 79 % 1030,7 hPa 0,0 l/m 0 min 0 min 137 W/m 9,7 km/h (2 Bft) 100,00 %
28.01.2023 13:38 1,4 C 2,2 C -1,7 C 79 % 1030,7 hPa 0,0 l/m 0 min 0 min 133 W/m 9,7 km/h (2 Bft) 100,00 %
28.01.2023 13:40 1,4 C 2,2 C -1,7 C 79 % 1030,8 hPa 0,0 l/m 0 min 0 min 124 W/m 9,7 km/h (2 Bft) 97,83 %
28.01.2023 13:42 1,4 C 1,7 C -1,7 C 79 % 1030,8 hPa 0,0 l/m 0 min 0 min 111 W/m 9,7 km/h (2 Bft) 100,00 %
28.01.2023 13:44 1,4 C 1,7 C -1,7 C 79 % 1030,7 hPa 0,0 l/m 0 min 0 min 102 W/m 6,4 km/h (2 Bft) 97,87 %
28.01.2023 13:46 1,4 C 1,7 C -1,7 C 78 % 1030,5 hPa 0,0 l/m 0 min 0 min 116 W/m 3,2 km/h (1 Bft) 100,00 %
28.01.2023 13:48 1,4 C 2,2 C -1,7 C 78 % 1030,4 hPa 0,0 l/m 0 min 0 min 135 W/m 6,4 km/h (2 Bft) 100,00 %
28.01.2023 13:50 1,4 C 2,2 C -1,7 C 78 % 1030,4 hPa 0,0 l/m 0 min 0 min 147 W/m 3,2 km/h (1 Bft) 95,74 %
28.01.2023 13:52 1,5 C 2,2 C -1,7 C 78 % 1030,3 hPa 0,0 l/m 0 min 0 min 152 W/m 6,4 km/h (2 Bft) 91,30 %
28.01.2023 13:54 1,6 C 2,8 C -1,7 C 79 % 1030,2 hPa 0,0 l/m 0 min 0 min 165 W/m 6,4 km/h (2 Bft) 93,88 %
28.01.2023 13:56 1,6 C 2,8 C -1,7 C 79 % 1030,1 hPa 0,0 l/m 0 min 0 min 177 W/m 6,4 km/h (2 Bft) 95,74 %
28.01.2023 13:58 1,6 C 2,8 C -1,7 C 79 % 1030,0 hPa 0,0 l/m 0 min 0 min 179 W/m 6,4 km/h (2 Bft) 97,87 %
28.01.2023 14:00 1,6 C 3,3 C -1,7 C 79 % 1029,9 hPa 0,0 l/m 0 min 0 min 172 W/m 3,2 km/h (1 Bft) 95,74 %
28.01.2023 14:02 1,7 C 3,3 C -1,7 C 79 % 1029,9 hPa 0,0 l/m 0 min 0 min 122 W/m 3,2 km/h (1 Bft) 95,74 %
28.01.2023 14:04 1,7 C 2,8 C -1,7 C 78 % 1029,9 hPa 0,0 l/m 0 min 0 min 103 W/m 0,0 km/h (0 Bft) 95,74 %
28.01.2023 14:06 1,7 C 2,8 C -1,7 C 78 % 1029,9 hPa 0,0 l/m 0 min 0 min 112 W/m 3,2 km/h (1 Bft) 95,65 %
28.01.2023 14:08 1,7 C 2,8 C -1,7 C 78 % 1029,9 hPa 0,0 l/m 0 min 0 min 159 W/m 3,2 km/h (1 Bft) 95,74 %
28.01.2023 14:10 1,8 C 2,8 C -1,7 C 78 % 1030,1 hPa 0,0 l/m 0 min 0 min 113 W/m 6,4 km/h (2 Bft) 95,74 %
28.01.2023 14:12 1,7 C 2,2 C -1,7 C 78 % 1030,2 hPa 0,0 l/m 0 min 0 min 54 W/m 6,4 km/h (2 Bft) 95,74 %
28.01.2023 14:14 1,8 C 2,2 C -1,7 C 78 % 1030,3 hPa 0,0 l/m 0 min 0 min 40 W/m 6,4 km/h (2 Bft) 95,74 %
28.01.2023 14:16 1,7 C 1,7 C -1,7 C 78 % 1030,3 hPa 0,0 l/m 0 min 0 min 46 W/m 9,7 km/h (2 Bft) 95,74 %
28.01.2023 14:18 1,7 C 1,7 C -1,7 C 78 % 1030,4 hPa 0,0 l/m 0 min 0 min 79 W/m 6,4 km/h (2 Bft) 51,16 %
28.01.2023 14:20 1,7 C 1,7 C -1,7 C 78 % 1030,4 hPa 0,0 l/m 0 min 0 min 113 W/m 6,4 km/h (2 Bft) 95,74 %
28.01.2023 14:22 1,7 C 1,7 C -1,7 C 78 % 1030,4 hPa 0,0 l/m 0 min 0 min 114 W/m 6,4 km/h (2 Bft) 95,74 %
28.01.2023 14:24 1,7 C 2,2 C -1,7 C 78 % 1030,5 hPa 0,0 l/m 0 min 0 min 112 W/m 6,4 km/h (2 Bft) 93,62 %
28.01.2023 14:26 1,7 C 2,2 C -1,7 C 78 % 1030,4 hPa 0,0 l/m 0 min 0 min 109 W/m 3,2 km/h (1 Bft) 95,74 %
28.01.2023 14:28 1,7 C 1,7 C -1,7 C 78 % 1030,3 hPa 0,0 l/m 0 min 0 min 113 W/m 6,4 km/h (2 Bft) 97,87 %
28.01.2023 14:30 1,7 C 1,7 C -1,7 C 78 % 1030,4 hPa 0,0 l/m 0 min 0 min 113 W/m 6,4 km/h (2 Bft) 95,74 %
28.01.2023 14:32 1,7 C 1,7 C -1,7 C 78 % 1030,5 hPa 0,0 l/m 0 min 0 min 105 W/m 9,7 km/h (2 Bft) 97,83 %
28.01.2023 14:34 1,7 C 1,7 C -1,7 C 78 % 1030,5 hPa 0,0 l/m 0 min 0 min 100 W/m 6,4 km/h (2 Bft) 97,87 %
28.01.2023 14:36 1,7 C 2,2 C -1,7 C 78 % 1030,5 hPa 0,0 l/m 0 min 0 min 104 W/m 3,2 km/h (1 Bft) 97,87 %
28.01.2023 14:38 1,7 C 2,2 C -1,7 C 79 % 1030,5 hPa 0,0 l/m 0 min 0 min 100 W/m 6,4 km/h (2 Bft) 97,87 %
28.01.2023 14:40 1,7 C 1,7 C -1,7 C 78 % 1030,6 hPa 0,0 l/m 0 min 0 min 88 W/m 6,4 km/h (2 Bft) 100,00 %
28.01.2023 14:42 1,7 C 1,7 C -1,7 C 78 % 1030,6 hPa 0,0 l/m 0 min 0 min 88 W/m 3,2 km/h (1 Bft) 100,00 %
28.01.2023 14:44 1,7 C 1,7 C -1,7 C 78 % 1030,6 hPa 0,0 l/m 0 min 0 min 93 W/m 6,4 km/h (2 Bft) 100,00 %
28.01.2023 14:46 1,7 C 1,7 C -1,7 C 78 % 1030,7 hPa 0,0 l/m 0 min 0 min 98 W/m 9,7 km/h (2 Bft) 97,87 %
28.01.2023 14:48 1,7 C 1,7 C -1,7 C 78 % 1030,6 hPa 0,0 l/m 0 min 0 min 101 W/m 6,4 km/h (2 Bft) 100,00 %
28.01.2023 14:50 1,7 C 1,7 C -1,7 C 78 % 1030,6 hPa 0,0 l/m 0 min 0 min 98 W/m 6,4 km/h (2 Bft) 100,00 %
28.01.2023 14:52 1,7 C 1,7 C -1,7 C 78 % 1030,5 hPa 0,0 l/m 0 min 0 min 100 W/m 9,7 km/h (2 Bft) 100,00 %
28.01.2023 14:54 1,7 C 2,2 C -1,7 C 78 % 1030,5 hPa 0,0 l/m 0 min 0 min 98 W/m 9,7 km/h (2 Bft) 100,00 %
28.01.2023 14:56 1,7 C 2,2 C -1,7 C 78 % 1030,6 hPa 0,0 l/m 0 min 0 min 102 W/m 6,4 km/h (2 Bft) 100,00 %
28.01.2023 14:58 1,7 C 1,7 C -1,7 C 78 % 1030,6 hPa 0,0 l/m 0 min 0 min 101 W/m 6,4 km/h (2 Bft) 100,00 %
28.01.2023 15:00 1,7 C 2,2 C -1,7 C 78 % 1030,7 hPa 0,0 l/m 0 min 0 min 98 W/m 9,7 km/h (2 Bft) 97,87 %
28.01.2023 15:02 1,7 C 2,2 C -1,7 C 78 % 1030,6 hPa 0,0 l/m 0 min 0 min 98 W/m 3,2 km/h (1 Bft) 100,00 %
28.01.2023 15:04 1,7 C 2,2 C -1,7 C 77 % 1030,6 hPa 0,0 l/m 0 min 0 min 101 W/m 6,4 km/h (2 Bft) 100,00 %
28.01.2023 15:06 1,6 C 2,2 C -1,7 C 77 % 1030,5 hPa 0,0 l/m 0 min 0 min 108 W/m 9,7 km/h (2 Bft) 100,00 %
28.01.2023 15:08 1,6 C 2,2 C -1,7 C 77 % 1030,6 hPa 0,0 l/m 0 min 0 min 111 W/m 9,7 km/h (2 Bft) 100,00 %
28.01.2023 15:10 1,6 C 2,2 C -1,7 C 77 % 1030,6 hPa 0,0 l/m 0 min 0 min 113 W/m 6,4 km/h (2 Bft) 97,83 %
28.01.2023 15:12 1,6 C 2,2 C -1,7 C 77 % 1030,7 hPa 0,0 l/m 0 min 0 min 115 W/m 0,0 km/h (0 Bft) 97,87 %
28.01.2023 15:14 1,6 C 2,2 C -1,7 C 77 % 1030,7 hPa 0,0 l/m 0 min 0 min 115 W/m 6,4 km/h (2 Bft) 100,00 %
28.01.2023 15:16 1,6 C 2,2 C -1,7 C 77 % 1030,7 hPa 0,0 l/m 0 min 0 min 96 W/m 6,4 km/h (2 Bft) 97,83 %
28.01.2023 15:18 1,6 C 2,2 C -1,7 C 77 % 1030,6 hPa 0,0 l/m 0 min 0 min 104 W/m 6,4 km/h (2 Bft) 96,49 %
28.01.2023 15:20 1,6 C 2,2 C -2,2 C 77 % 1030,6 hPa 0,0 l/m 0 min 0 min 116 W/m 6,4 km/h (2 Bft) 97,87 %
28.01.2023 15:22 1,6 C 2,2 C -2,2 C 77 % 1030,6 hPa 0,0 l/m 0 min 0 min 106 W/m 6,4 km/h (2 Bft) 95,74 %
28.01.2023 15:24 1,6 C 2,2 C -2,2 C 77 % 1030,6 hPa 0,0 l/m 0 min 0 min 100 W/m 3,2 km/h (1 Bft) 97,83 %
28.01.2023 15:26 1,6 C 2,2 C -1,7 C 77 % 1030,6 hPa 0,0 l/m 0 min 0 min 104 W/m 6,4 km/h (2 Bft) 97,87 %
28.01.2023 15:28 1,6 C 2,2 C -2,2 C 77 % 1030,5 hPa 0,0 l/m 2 min 0 min 122 W/m 0,0 km/h (0 Bft) 95,74 %
28.01.2023 15:30 1,6 C 2,2 C -1,7 C 77 % 1030,4 hPa 0,0 l/m 2 min 0 min 142 W/m 3,2 km/h (1 Bft) 95,74 %
28.01.2023 15:32 1,6 C 2,2 C -1,7 C 77 % 1030,3 hPa 0,0 l/m 2 min 0 min 137 W/m 6,4 km/h (2 Bft) 93,62 %
28.01.2023 15:34 1,6 C 2,2 C -1,7 C 77 % 1030,2 hPa 0,0 l/m 2 min 0 min 123 W/m 3,2 km/h (1 Bft) 97,87 %
28.01.2023 15:36 1,6 C 2,2 C -1,7 C 78 % 1030,2 hPa 0,0 l/m 2 min 0 min 149 W/m 3,2 km/h (1 Bft) 97,83 %
28.01.2023 15:38 1,6 C 1,7 C -2,2 C 77 % 1030,1 hPa 0,0 l/m 2 min 0 min 130 W/m 6,4 km/h (2 Bft) 97,87 %
28.01.2023 15:40 1,6 C 1,7 C -2,2 C 77 % 1030,1 hPa 0,0 l/m 2 min 0 min 113 W/m 6,4 km/h (2 Bft) 93,62 %
28.01.2023 15:42 1,6 C 1,7 C -2,2 C 77 % 1030,0 hPa 0,0 l/m 2 min 0 min 109 W/m 9,7 km/h (2 Bft) 93,62 %
28.01.2023 15:44 1,6 C 1,1 C -2,2 C 77 % 1030,1 hPa 0,0 l/m 2 min 0 min 130 W/m 6,4 km/h (2 Bft) 95,74 %
28.01.2023 15:46 1,6 C 1,1 C -2,2 C 77 % 1030,1 hPa 0,0 l/m 2 min 0 min 115 W/m 6,4 km/h (2 Bft) 97,87 %
28.01.2023 15:48 1,6 C 1,1 C -2,2 C 77 % 1030,0 hPa 0,0 l/m 0 min 0 min 77 W/m 9,7 km/h (2 Bft) 95,74 %
28.01.2023 15:50 1,6 C 1,1 C -2,2 C 77 % 1030,1 hPa 0,0 l/m 0 min 0 min 69 W/m 6,4 km/h (2 Bft) 97,83 %
28.01.2023 15:52 1,5 C 1,1 C -2,2 C 77 % 1030,1 hPa 0,0 l/m 0 min 0 min 66 W/m 6,4 km/h (2 Bft) 95,74 %
28.01.2023 15:54 1,5 C 1,1 C -2,2 C 77 % 1030,0 hPa 0,0 l/m 0 min 0 min 62 W/m 6,4 km/h (2 Bft) 95,74 %
28.01.2023 15:56 1,4 C 1,1 C -2,8 C 77 % 1030,0 hPa 0,0 l/m 0 min 0 min 60 W/m 6,4 km/h (2 Bft) 95,74 %
28.01.2023 16:01 1,4 C 1,1 C -2,2 C 77 % 1030,1 hPa 0,0 l/m 0 min 0 min 54 W/m 3,2 km/h (1 Bft) 96,83 %
28.01.2023 16:02 1,4 C 1,1 C -2,8 C 77 % 1030,1 hPa 0,0 l/m 0 min 0 min 49 W/m 3,2 km/h (1 Bft) 100,00 %
28.01.2023 16:04 1,4 C 0,6 C -2,8 C 77 % 1030,1 hPa 0,0 l/m 0 min 0 min 48 W/m 3,2 km/h (1 Bft) 95,74 %
28.01.2023 16:06 1,3 C 0,6 C -2,8 C 77 % 1030,1 hPa 0,0 l/m 0 min 0 min 46 W/m 3,2 km/h (1 Bft) 70,21 %
28.01.2023 16:08 1,3 C 0,6 C -2,8 C 77 % 1030,1 hPa 0,0 l/m 0 min 0 min 45 W/m 0,0 km/h (0 Bft) 82,98 %
28.01.2023 16:10 1,3 C 0,6 C -2,8 C 77 % 1030,1 hPa 0,0 l/m 0 min 0 min 44 W/m 0,0 km/h (0 Bft) 95,74 %
28.01.2023 16:12 1,3 C 0,6 C -2,8 C 77 % 1030,1 hPa 0,0 l/m 0 min 0 min 42 W/m 3,2 km/h (1 Bft) 97,87 %
28.01.2023 16:14 1,2 C 0,6 C -2,8 C 77 % 1030,1 hPa 0,0 l/m 0 min 0 min 42 W/m 3,2 km/h (1 Bft) 97,83 %
28.01.2023 16:16 1,2 C 0,6 C -2,8 C 77 % 1030,2 hPa 0,0 l/m 0 min 0 min 41 W/m 0,0 km/h (0 Bft) 97,87 %
28.01.2023 16:18 1,2 C 0,6 C -2,8 C 78 % 1030,2 hPa 0,0 l/m 0 min 0 min 39 W/m 0,0 km/h (0 Bft) 95,74 %
28.01.2023 16:20 1,2 C 0,6 C -2,8 C 78 % 1030,3 hPa 0,0 l/m 0 min 0 min 38 W/m 0,0 km/h (0 Bft) 95,74 %
28.01.2023 16:22 1,2 C 0,6 C -2,8 C 78 % 1030,3 hPa 0,0 l/m 0 min 0 min 37 W/m 0,0 km/h (0 Bft) 95,74 %
28.01.2023 16:24 1,2 C 0,6 C -2,8 C 78 % 1030,3 hPa 0,0 l/m 0 min 0 min 37 W/m 3,2 km/h (1 Bft) 95,74 %
28.01.2023 16:26 1,1 C 0,6 C -2,8 C 78 % 1030,4 hPa 0,0 l/m 0 min 0 min 36 W/m 0,0 km/h (0 Bft) 93,62 %
28.01.2023 16:28 1,1 C 0,6 C -2,8 C 79 % 1030,5 hPa 0,0 l/m 0 min 0 min 35 W/m 3,2 km/h (1 Bft) 95,65 %
28.01.2023 16:30 1,1 C 0,6 C -2,8 C 79 % 1030,4 hPa 0,0 l/m 0 min 0 min 33 W/m 0,0 km/h (0 Bft) 97,87 %
28.01.2023 16:32 1,1 C 0,6 C -2,8 C 79 % 1030,4 hPa 0,0 l/m 0 min 0 min 33 W/m 0,0 km/h (0 Bft) 95,74 %
28.01.2023 16:34 1,1 C 0,6 C -2,8 C 79 % 1030,4 hPa 0,0 l/m 0 min 0 min 32 W/m 0,0 km/h (0 Bft) 95,74 %
28.01.2023 16:36 1,1 C 0,6 C -2,8 C 79 % 1030,5 hPa 0,0 l/m 0 min 0 min 29 W/m 3,2 km/h (1 Bft) 97,87 %
28.01.2023 16:38 1,0 C 0,6 C -2,8 C 79 % 1030,6 hPa 0,0 l/m 0 min 0 min 27 W/m 0,0 km/h (0 Bft) 97,87 %
28.01.2023 16:40 1,0 C 0,0 C -2,8 C 79 % 1030,5 hPa 0,0 l/m 0 min 0 min 26 W/m 0,0 km/h (0 Bft) 93,48 %
28.01.2023 16:42 1,0 C 0,0 C -3,3 C 79 % 1030,5 hPa 0,0 l/m 0 min 0 min 24 W/m 3,2 km/h (1 Bft) 97,87 %
28.01.2023 16:44 0,9 C 0,0 C -3,3 C 79 % 1030,5 hPa 0,0 l/m 0 min 0 min 23 W/m 3,2 km/h (1 Bft) 97,87 %
28.01.2023 16:46 0,9 C 0,0 C -3,3 C 79 % 1030,5 hPa 0,0 l/m 0 min 0 min 21 W/m 3,2 km/h (1 Bft) 100,00 %
28.01.2023 16:48 0,8 C 0,0 C -3,3 C 79 % 1030,6 hPa 0,0 l/m 0 min 0 min 21 W/m 0,0 km/h (0 Bft) 100,00 %
28.01.2023 16:50 0,8 C 0,0 C -3,3 C 79 % 1030,6 hPa 0,0 l/m 0 min 0 min 19 W/m 3,2 km/h (1 Bft) 100,00 %
28.01.2023 16:52 0,8 C 0,0 C -3,3 C 79 % 1030,7 hPa 0,0 l/m 0 min 0 min 18 W/m 6,4 km/h (2 Bft) 100,00 %
28.01.2023 16:54 0,7 C 0,0 C -3,3 C 80 % 1030,7 hPa 0,0 l/m 0 min 0 min 16 W/m 9,7 km/h (2 Bft) 97,87 %
28.01.2023 16:56 0,7 C 0,0 C -3,3 C 80 % 1030,7 hPa 0,0 l/m 0 min 0 min 14 W/m 6,4 km/h (2 Bft) 100,00 %
28.01.2023 16:58 0,7 C 0,0 C -3,3 C 80 % 1030,7 hPa 0,0 l/m 0 min 0 min 13 W/m 3,2 km/h (1 Bft) 100,00 %
28.01.2023 17:00 0,6 C 0,0 C -3,3 C 80 % 1030,7 hPa 0,0 l/m 0 min 0 min 12 W/m 3,2 km/h (1 Bft) 100,00 %
28.01.2023 17:02 0,6 C -0,6 C -3,3 C 80 % 1030,7 hPa 0,0 l/m 0 min 0 min 12 W/m 3,2 km/h (1 Bft) 100,00 %
28.01.2023 17:04 0,6 C -0,6 C -3,3 C 80 % 1030,7 hPa 0,0 l/m 0 min 0 min 11 W/m 6,4 km/h (2 Bft) 100,00 %
28.01.2023 17:06 0,6 C -0,6 C -3,3 C 81 % 1030,7 hPa 0,0 l/m 0 min 0 min 9 W/m 6,4 km/h (2 Bft) 97,83 %
28.01.2023 17:08 0,6 C -0,6 C -3,3 C 81 % 1030,7 hPa 0,0 l/m 0 min 0 min 9 W/m 3,2 km/h (1 Bft) 100,00 %
28.01.2023 17:10 0,6 C -0,6 C -3,3 C 81 % 1030,7 hPa 0,0 l/m 0 min 0 min 7 W/m 0,0 km/h (0 Bft) 100,00 %
28.01.2023 17:12 0,5 C -0,6 C -3,9 C 81 % 1030,9 hPa 0,0 l/m 0 min 0 min 7 W/m 0,0 km/h (0 Bft) 100,00 %
28.01.2023 17:14 0,4 C -0,6 C -3,9 C 81 % 1030,9 hPa 0,0 l/m 0 min 0 min 6 W/m 3,2 km/h (1 Bft) 100,00 %
28.01.2023 17:16 0,4 C -1,1 C -3,9 C 81 % 1031,0 hPa 0,0 l/m 0 min 0 min 5 W/m 6,4 km/h (2 Bft) 97,87 %
28.01.2023 17:18 0,4 C -1,1 C -3,9 C 81 % 1031,1 hPa 0,0 l/m 0 min 0 min 5 W/m 3,2 km/h (1 Bft) 100,00 %
28.01.2023 17:20 0,3 C -1,1 C -3,9 C 81 % 1031,2 hPa 0,0 l/m 0 min 0 min 2 W/m 6,4 km/h (2 Bft) 100,00 %
28.01.2023 17:22 0,3 C -1,1 C -3,9 C 82 % 1031,2 hPa 0,0 l/m 0 min 0 min 0 W/m 6,4 km/h (2 Bft) 94,34 %
28.01.2023 17:24 0,3 C -1,1 C -3,9 C 82 % 1031,2 hPa 0,0 l/m 0 min 0 min 0 W/m 6,4 km/h (2 Bft) 100,00 %
28.01.2023 17:26 0,2 C -1,1 C -3,9 C 82 % 1031,2 hPa 0,0 l/m 0 min 0 min 0 W/m 6,4 km/h (2 Bft) 98,00 %
28.01.2023 17:28 0,2 C -1,1 C -3,9 C 82 % 1031,2 hPa 0,0 l/m 0 min 0 min 0 W/m 6,4 km/h (2 Bft) 95,74 %
28.01.2023 17:30 0,2 C -1,1 C -3,9 C 82 % 1031,2 hPa 0,0 l/m 0 min 0 min 0 W/m 6,4 km/h (2 Bft) 100,00 %
28.01.2023 17:32 0,1 C -1,1 C -3,9 C 82 % 1031,2 hPa 0,0 l/m 0 min 0 min 0 W/m 3,2 km/h (1 Bft) 100,00 %
28.01.2023 17:34 0,1 C -1,1 C -3,9 C 82 % 1031,2 hPa 0,0 l/m 0 min 0 min 0 W/m 6,4 km/h (2 Bft) 97,87 %
28.01.2023 17:36 0,0 C -1,1 C -3,9 C 82 % 1031,2 hPa 0,0 l/m 0 min 0 min 0 W/m 0,0 km/h (0 Bft) 100,00 %
28.01.2023 17:38 0,0 C -1,1 C -3,9 C 83 % 1031,2 hPa 0,0 l/m 0 min 0 min 0 W/m 6,4 km/h (2 Bft) 97,87 %
28.01.2023 17:40 -0,1 C -1,1 C -3,9 C 82 % 1031,2 hPa 0,0 l/m 0 min 0 min 0 W/m 0,0 km/h (0 Bft) 100,00 %
28.01.2023 17:42 -0,1 C -1,1 C -3,9 C 83 % 1031,2 hPa 0,0 l/m 0 min 0 min 0 W/m 3,2 km/h (1 Bft) 93,62 %
28.01.2023 17:44 -0,1 C -1,1 C -4,4 C 83 % 1031,2 hPa 0,0 l/m 0 min 0 min 0 W/m 3,2 km/h (1 Bft) 97,83 %
28.01.2023 17:46 -0,2 C -1,1 C -4,4 C 83 % 1031,2 hPa 0,0 l/m 0 min 0 min 0 W/m 3,2 km/h (1 Bft) 97,87 %
28.01.2023 17:48 -0,2 C -1,1 C -4,4 C 83 % 1031,2 hPa 0,0 l/m 0 min 0 min 0 W/m 0,0 km/h (0 Bft) 97,87 %
28.01.2023 17:50 -0,2 C -1,7 C -4,4 C 83 % 1031,1 hPa 0,0 l/m 0 min 0 min 0 W/m 0,0 km/h (0 Bft) 97,87 %
28.01.2023 17:52 -0,2 C -1,7 C -4,4 C 83 % 1031,1 hPa 0,0 l/m 0 min 0 min 0 W/m 0,0 km/h (0 Bft) 89,36 %
28.01.2023 17:54 -0,2 C -1,7 C -4,4 C 83 % 1031,2 hPa 0,0 l/m 0 min 0 min 0 W/m 0,0 km/h (0 Bft) 97,87 %
28.01.2023 17:56 -0,3 C -1,7 C -5,0 C 83 % 1031,2 hPa 0,0 l/m 0 min 0 min 0 W/m 0,0 km/h (0 Bft) 97,83 %
28.01.2023 17:58 -0,3 C -2,2 C -5,0 C 83 % 1031,3 hPa 0,0 l/m 0 min 0 min 0 W/m 0,0 km/h (0 Bft) 97,87 %
28.01.2023 18:00 -0,3 C -2,2 C -5,0 C 83 % 1031,3 hPa 0,0 l/m 0 min 0 min 0 W/m 0,0 km/h (0 Bft) 91,49 %
28.01.2023 18:02 -0,3 C -2,2 C -5,0 C 83 % 1031,2 hPa 0,0 l/m 0 min 0 min 0 W/m 0,0 km/h (0 Bft) 95,74 %
28.01.2023 18:04 -0,4 C -2,2 C -5,0 C 83 % 1031,1 hPa 0,0 l/m 0 min 0 min 0 W/m 0,0 km/h (0 Bft) 95,74 %
28.01.2023 18:07 -0,4 C -2,2 C -5,0 C 83 % 1031,2 hPa 0,0 l/m 0 min 0 min 0 W/m 0,0 km/h (0 Bft) 90,14 %
28.01.2023 18:08 -0,4 C -2,2 C -5,0 C 83 % 1031,2 hPa 0,0 l/m 0 min 0 min 0 W/m 0,0 km/h (0 Bft) 100,00 %
28.01.2023 18:12 -0,5 C -2,2 C -5,0 C 83 % 1031,1 hPa 0,0 l/m 0 min 0 min 0 W/m 0,0 km/h (0 Bft) 96,00 %
28.01.2023 18:14 -0,5 C -2,2 C -5,0 C 83 % 1031,2 hPa 0,0 l/m 0 min 0 min 0 W/m 0,0 km/h (0 Bft) 93,48 %
28.01.2023 18:16 -0,6 C -2,8 C -5,0 C 83 % 1031,1 hPa 0,0 l/m 0 min 0 min 0 W/m 0,0 km/h (0 Bft) 97,87 %
28.01.2023 18:18 -0,6 C -2,8 C -5,6 C 83 % 1031,1 hPa 0,0 l/m 0 min 0 min 0 W/m 0,0 km/h (0 Bft) 93,62 %
28.01.2023 18:20 -0,6 C -2,8 C -5,6 C 83 % 1031,2 hPa 0,0 l/m 0 min 0 min 0 W/m 0,0 km/h (0 Bft) 95,74 %
28.01.2023 18:22 -0,7 C -2,8 C -5,6 C 83 % 1031,2 hPa 0,0 l/m 0 min 0 min 0 W/m 0,0 km/h (0 Bft) 87,23 %
28.01.2023 18:24 -0,7 C -2,8 C -5,6 C 83 % 1031,1 hPa 0,0 l/m 0 min 0 min 0 W/m 0,0 km/h (0 Bft) 93,62 %
28.01.2023 18:26 -0,7 C -2,2 C -5,6 C 83 % 1031,0 hPa 0,0 l/m 0 min 0 min 0 W/m 0,0 km/h (0 Bft) 95,74 %
28.01.2023 18:28 -0,8 C -2,2 C -5,0 C 83 % 1030,9 hPa 0,0 l/m 0 min 0 min 0 W/m 0,0 km/h (0 Bft) 95,65 %
28.01.2023 18:30 -0,8 C -2,2 C -5,0 C 83 % 1030,9 hPa 0,0 l/m 0 min 0 min 0 W/m 0,0 km/h (0 Bft) 89,36 %
28.01.2023 18:32 -0,8 C -2,2 C -5,0 C 84 % 1030,9 hPa 0,0 l/m 0 min 0 min 0 W/m 0,0 km/h (0 Bft) 97,87 %
28.01.2023 18:34 -0,9 C -2,2 C -5,0 C 84 % 1030,9 hPa 0,0 l/m 0 min 0 min 0 W/m 3,2 km/h (1 Bft) 97,87 %
28.01.2023 18:36 -0,9 C -2,2 C -5,0 C 84 % 1030,8 hPa 0,0 l/m 0 min 0 min 0 W/m 3,2 km/h (1 Bft) 85,11 %
28.01.2023 18:38 -0,9 C -2,2 C -5,0 C 85 % 1030,8 hPa 0,0 l/m 0 min 0 min 0 W/m 0,0 km/h (0 Bft) 65,96 %
28.01.2023 18:40 -0,9 C -2,2 C -5,0 C 85 % 1030,8 hPa 0,0 l/m 0 min 0 min 0 W/m 0,0 km/h (0 Bft) 89,36 %
28.01.2023 18:42 -1,0 C -2,2 C -5,6 C 85 % 1030,9 hPa 0,0 l/m 0 min 0 min 0 W/m 0,0 km/h (0 Bft) 95,65 %
28.01.2023 18:44 -1,0 C -2,8 C -5,6 C 85 % 1031,0 hPa 0,0 l/m 0 min 0 min 0 W/m 0,0 km/h (0 Bft) 89,36 %
28.01.2023 18:46 -1,0 C -2,8 C -5,6 C 85 % 1031,0 hPa 0,0 l/m 0 min 0 min 0 W/m 0,0 km/h (0 Bft) 97,87 %
28.01.2023 18:50 -1,1 C -2,8 C -5,6 C 85 % 1031,1 hPa 0,0 l/m 0 min 0 min 0 W/m 0,0 km/h (0 Bft) 81,58 %
28.01.2023 18:55 -1,2 C -2,8 C -5,6 C 85 % 1031,3 hPa 0,0 l/m 0 min 0 min 0 W/m 0,0 km/h (0 Bft) 96,49 %
28.01.2023 19:00 -1,2 C -2,8 C -5,6 C 85 % 1031,3 hPa 0,0 l/m 0 min 0 min 0 W/m 0,0 km/h (0 Bft) 92,11 %
28.01.2023 19:05 -1,3 C -2,8 C -5,6 C 85 % 1031,4 hPa 0,0 l/m 0 min 0 min 0 W/m 0,0 km/h (0 Bft) 92,98 %
28.01.2023 19:10 -1,4 C -2,8 C -5,6 C 85 % 1031,4 hPa 0,0 l/m 0 min 0 min 0 W/m 0,0 km/h (0 Bft) 97,37 %
28.01.2023 19:15 -1,5 C -3,3 C -5,6 C 85 % 1031,5 hPa 0,0 l/m 0 min 0 min 0 W/m 0,0 km/h (0 Bft) 96,49 %
28.01.2023 19:20 -1,6 C -3,3 C -5,6 C 85 % 1031,6 hPa 0,0 l/m 0 min 0 min 0 W/m 0,0 km/h (0 Bft) 95,61 %
28.01.2023 19:25 -1,7 C -3,3 C -5,6 C 85 % 1031,5 hPa 0,0 l/m 0 min 0 min 0 W/m 0,0 km/h (0 Bft) 64,91 %
28.01.2023 19:53 -2,1 C -3,3 C -6,1 C 86 % 1031,7 hPa 0,0 l/m 0 min 0 min 0 W/m 0,0 km/h (0 Bft) 95,45 %
28.01.2023 19:54 -2,1 C -3,3 C -6,1 C 86 % 1031,7 hPa 0,0 l/m 0 min 0 min 0 W/m 0,0 km/h (0 Bft) 95,83 %
28.01.2023 19:56 -2,1 C -3,3 C -6,1 C 86 % 1031,7 hPa 0,0 l/m 0 min 0 min 0 W/m 0,0 km/h (0 Bft) 95,74 %
28.01.2023 19:58 -2,2 C -3,3 C -6,1 C 86 % 1031,8 hPa 0,0 l/m 0 min 0 min 0 W/m 0,0 km/h (0 Bft) 97,87 %
28.01.2023 20:00 -2,2 C -3,3 C -6,1 C 86 % 1031,8 hPa 0,0 l/m 0 min 0 min 0 W/m 0,0 km/h (0 Bft) 95,74 %
28.01.2023 20:02 -2,2 C -3,3 C -6,1 C 86 % 1031,8 hPa 0,0 l/m 0 min 0 min 0 W/m 0,0 km/h (0 Bft) 97,87 %
28.01.2023 20:04 -2,2 C -3,3 C -6,1 C 86 % 1031,7 hPa 0,0 l/m 0 min 0 min 0 W/m 0,0 km/h (0 Bft) 93,62 %
28.01.2023 20:06 -2,2 C -3,3 C -6,1 C 86 % 1031,8 hPa 0,0 l/m 0 min 0 min 0 W/m 0,0 km/h (0 Bft) 91,49 %
28.01.2023 20:08 -2,3 C -3,3 C -6,1 C 86 % 1031,8 hPa 0,0 l/m 0 min 0 min 0 W/m 0,0 km/h (0 Bft) 100,00 %
28.01.2023 20:10 -2,3 C -3,3 C -6,1 C 86 % 1031,8 hPa 0,0 l/m 0 min 0 min 0 W/m 0,0 km/h (0 Bft) 95,65 %
28.01.2023 20:12 -2,3 C -3,3 C -6,1 C 86 % 1031,8 hPa 0,0 l/m 0 min 0 min 0 W/m 3,2 km/h (1 Bft) 97,87 %
28.01.2023 20:14 -2,3 C -3,3 C -6,1 C 86 % 1031,8 hPa 0,0 l/m 0 min 0 min 0 W/m 0,0 km/h (0 Bft) 97,87 %
28.01.2023 20:16 -2,3 C -3,3 C -6,1 C 86 % 1031,8 hPa 0,0 l/m 0 min 0 min 0 W/m 3,2 km/h (1 Bft) 100,00 %
28.01.2023 20:18 -2,3 C -3,3 C -6,1 C 87 % 1031,8 hPa 0,0 l/m 0 min 0 min 0 W/m 0,0 km/h (0 Bft) 97,87 %
28.01.2023 20:20 -2,3 C -3,3 C -6,1 C 87 % 1031,8 hPa 0,0 l/m 0 min 0 min 0 W/m 0,0 km/h (0 Bft) 97,87 %
28.01.2023 20:22 -2,3 C -3,3 C -6,1 C 87 % 1031,8 hPa 0,0 l/m 0 min 0 min 0 W/m 0,0 km/h (0 Bft) 97,87 %
28.01.2023 20:24 -2,4 C -3,3 C -6,1 C 87 % 1031,8 hPa 0,0 l/m 0 min 0 min 0 W/m 0,0 km/h (0 Bft) 97,83 %
28.01.2023 20:26 -2,4 C -3,3 C -6,1 C 87 % 1031,8 hPa 0,0 l/m 0 min 0 min 0 W/m 0,0 km/h (0 Bft) 100,00 %
28.01.2023 20:28 -2,4 C -3,3 C -6,1 C 87 % 1031,7 hPa 0,0 l/m 0 min 0 min 0 W/m 0,0 km/h (0 Bft) 97,87 %
28.01.2023 20:30 -2,4 C -3,3 C -6,1 C 87 % 1031,8 hPa 0,0 l/m 0 min 0 min 0 W/m 0,0 km/h (0 Bft) 100,00 %
28.01.2023 20:32 -2,4 C -3,3 C -6,1 C 87 % 1031,8 hPa 0,0 l/m 0 min 0 min 0 W/m 0,0 km/h (0 Bft) 97,87 %
28.01.2023 20:34 -2,4 C -3,3 C -6,1 C 87 % 1031,7 hPa 0,0 l/m 0 min 0 min 0 W/m 0,0 km/h (0 Bft) 100,00 %
28.01.2023 20:36 -2,3 C -3,3 C -6,1 C 88 % 1031,7 hPa 0,0 l/m 0 min 0 min 0 W/m 0,0 km/h (0 Bft) 97,87 %
28.01.2023 20:38 -2,3 C -3,3 C -6,1 C 88 % 1031,7 hPa 0,0 l/m 0 min 0 min 0 W/m 0,0 km/h (0 Bft) 97,83 %
28.01.2023 20:40 -2,3 C -3,3 C -6,1 C 88 % 1031,7 hPa 0,0 l/m 0 min 0 min 0 W/m 0,0 km/h (0 Bft) 97,87 %
28.01.2023 20:42 -2,3 C -3,3 C -6,1 C 88 % 1031,7 hPa 0,0 l/m 0 min 0 min 0 W/m 0,0 km/h (0 Bft) 97,87 %
28.01.2023 20:44 -2,3 C -3,3 C -6,1 C 88 % 1031,7 hPa 0,0 l/m 0 min 0 min 0 W/m 0,0 km/h (0 Bft) 95,74 %
28.01.2023 20:46 -2,3 C -3,3 C -6,1 C 88 % 1031,7 hPa 0,0 l/m 0 min 0 min 0 W/m 0,0 km/h (0 Bft) 95,74 %
28.01.2023 20:48 -2,4 C -3,3 C -6,1 C 88 % 1031,8 hPa 0,0 l/m 0 min 0 min 0 W/m 0,0 km/h (0 Bft) 97,87 %
28.01.2023 20:50 -2,4 C -3,3 C -6,1 C 88 % 1031,8 hPa 0,0 l/m 0 min 0 min 0 W/m 0,0 km/h (0 Bft) 97,87 %
28.01.2023 20:52 -2,4 C -3,3 C -6,1 C 88 % 1031,8 hPa 0,0 l/m 0 min 0 min 0 W/m 0,0 km/h (0 Bft) 95,65 %
28.01.2023 20:54 -2,4 C -3,3 C -6,1 C 88 % 1031,8 hPa 0,0 l/m 0 min 0 min 0 W/m 0,0 km/h (0 Bft) 95,74 %
28.01.2023 20:56 -2,4 C -3,3 C -6,1 C 88 % 1031,9 hPa 0,0 l/m 0 min 0 min 0 W/m 0,0 km/h (0 Bft) 97,87 %
28.01.2023 20:58 -2,4 C -3,3 C -6,1 C 88 % 1031,9 hPa 0,0 l/m 0 min 0 min 0 W/m 0,0 km/h (0 Bft) 78,72 %
28.01.2023 21:00 -2,4 C -3,3 C -6,1 C 88 % 1031,9 hPa 0,0 l/m 0 min 0 min 0 W/m 0,0 km/h (0 Bft) 93,62 %
28.01.2023 21:02 -2,4 C -3,3 C -6,1 C 88 % 1031,9 hPa 0,0 l/m 0 min 0 min 0 W/m 0,0 km/h (0 Bft) 95,74 %
28.01.2023 21:04 -2,4 C -3,3 C -6,1 C 88 % 1031,9 hPa 0,0 l/m 0 min 0 min 0 W/m 0,0 km/h (0 Bft) 97,87 %
28.01.2023 21:06 -2,5 C -3,3 C -6,1 C 88 % 1032,0 hPa 0,0 l/m 0 min 0 min 0 W/m 0,0 km/h (0 Bft) 97,87 %
28.01.2023 21:08 -2,5 C -3,3 C -6,1 C 88 % 1032,0 hPa 0,0 l/m 0 min 0 min 0 W/m 0,0 km/h (0 Bft) 89,36 %
28.01.2023 21:10 -2,6 C -3,3 C -6,1 C 88 % 1032,0 hPa 0,0 l/m 0 min 0 min 0 W/m 0,0 km/h (0 Bft) 100,00 %
28.01.2023 21:12 -2,6 C -3,3 C -6,1 C 88 % 1032,1 hPa 0,0 l/m 0 min 0 min 0 W/m 0,0 km/h (0 Bft) 97,87 %
28.01.2023 21:14 -2,6 C -3,3 C -6,1 C 88 % 1032,0 hPa 0,0 l/m 0 min 0 min 0 W/m 0,0 km/h (0 Bft) 100,00 %
28.01.2023 21:16 -2,6 C -3,3 C -6,1 C 88 % 1032,0 hPa 0,0 l/m 0 min 0 min 0 W/m 0,0 km/h (0 Bft) 97,87 %
28.01.2023 21:18 -2,6 C -3,3 C -6,1 C 88 % 1032,0 hPa 0,0 l/m 0 min 0 min 0 W/m 0,0 km/h (0 Bft) 93,48 %
28.01.2023 21:20 -2,6 C -3,3 C -6,1 C 89 % 1031,9 hPa 0,0 l/m 0 min 0 min 0 W/m 0,0 km/h (0 Bft) 95,74 %
28.01.2023 21:22 -2,5 C -3,3 C -6,1 C 89 % 1031,9 hPa 0,0 l/m 0 min 0 min 0 W/m 0,0 km/h (0 Bft) 97,87 %
28.01.2023 21:24 -2,6 C -3,3 C -6,1 C 89 % 1031,9 hPa 0,0 l/m 0 min 0 min 0 W/m 0,0 km/h (0 Bft) 93,62 %
28.01.2023 21:26 -2,6 C -3,3 C -6,1 C 89 % 1031,9 hPa 0,0 l/m 0 min 0 min 0 W/m 0,0 km/h (0 Bft) 97,87 %
28.01.2023 21:28 -2,6 C -3,3 C -6,1 C 89 % 1031,9 hPa 0,0 l/m 0 min 0 min 0 W/m 0,0 km/h (0 Bft) 97,87 %
28.01.2023 21:30 -2,6 C -3,3 C -6,1 C 89 % 1031,9 hPa 0,0 l/m 0 min 0 min 0 W/m 0,0 km/h (0 Bft) 95,74 %
28.01.2023 21:32 -2,6 C -3,3 C -6,1 C 89 % 1031,8 hPa 0,0 l/m 0 min 0 min 0 W/m 0,0 km/h (0 Bft) 97,87 %
28.01.2023 21:34 -2,5 C -3,3 C -6,1 C 89 % 1031,9 hPa 0,0 l/m 0 min 0 min 0 W/m 0,0 km/h (0 Bft) 97,83 %
28.01.2023 21:36 -2,5 C -3,3 C -6,1 C 89 % 1031,8 hPa 0,0 l/m 0 min 0 min 0 W/m 0,0 km/h (0 Bft) 97,87 %
28.01.2023 21:38 -2,4 C -3,3 C -6,1 C 90 % 1031,8 hPa 0,0 l/m 0 min 0 min 0 W/m 0,0 km/h (0 Bft) 97,37 %
28.01.2023 21:40 -2,4 C -3,3 C -6,1 C 90 % 1031,8 hPa 0,0 l/m 0 min 0 min 0 W/m 0,0 km/h (0 Bft) 97,87 %
28.01.2023 21:42 -2,3 C -3,3 C -6,1 C 90 % 1031,8 hPa 0,0 l/m 0 min 0 min 0 W/m 0,0 km/h (0 Bft) 97,87 %
28.01.2023 21:44 -2,3 C -2,8 C -6,1 C 90 % 1031,7 hPa 0,0 l/m 0 min 0 min 0 W/m 0,0 km/h (0 Bft) 100,00 %
28.01.2023 21:46 -2,2 C -2,8 C -6,1 C 90 % 1031,7 hPa 0,0 l/m 0 min 0 min 0 W/m 0,0 km/h (0 Bft) 100,00 %
28.01.2023 21:48 -2,2 C -2,8 C -6,1 C 90 % 1031,7 hPa 0,0 l/m 0 min 0 min 0 W/m 0,0 km/h (0 Bft) 100,00 %
28.01.2023 21:50 -2,1 C -2,8 C -6,1 C 90 % 1031,8 hPa 0,0 l/m 0 min 0 min 0 W/m 0,0 km/h (0 Bft) 97,83 %
28.01.2023 21:52 -2,1 C -2,8 C -6,1 C 91 % 1031,7 hPa 0,0 l/m 0 min 0 min 0 W/m 0,0 km/h (0 Bft) 100,00 %
28.01.2023 21:54 -2,1 C -3,3 C -6,1 C 90 % 1031,7 hPa 0,0 l/m 0 min 0 min 0 W/m 0,0 km/h (0 Bft) 100,00 %
28.01.2023 21:56 -2,1 C -2,8 C -6,1 C 90 % 1031,6 hPa 0,0 l/m 0 min 0 min 0 W/m 0,0 km/h (0 Bft) 97,87 %
28.01.2023 21:58 -2,1 C -2,8 C -6,1 C 90 % 1031,7 hPa 0,0 l/m 0 min 0 min 0 W/m 0,0 km/h (0 Bft) 97,87 %
28.01.2023 22:00 -2,1 C -2,8 C -6,1 C 90 % 1031,6 hPa 0,0 l/m 0 min 0 min 0 W/m 0,0 km/h (0 Bft) 100,00 %
28.01.2023 22:02 -2,1 C -2,8 C -6,1 C 90 % 1031,6 hPa 0,0 l/m 0 min 0 min 0 W/m 0,0 km/h (0 Bft) 97,83 %
28.01.2023 22:04 -2,1 C -2,8 C -6,1 C 90 % 1031,5 hPa 0,0 l/m 0 min 0 min 0 W/m 0,0 km/h (0 Bft) 100,00 %
28.01.2023 22:06 -2,1 C -3,3 C -6,1 C 90 % 1031,5 hPa 0,0 l/m 0 min 0 min 0 W/m 0,0 km/h (0 Bft) 95,74 %
28.01.2023 22:08 -2,1 C -3,3 C -6,1 C 90 % 1031,5 hPa 0,0 l/m 0 min 0 min 0 W/m 0,0 km/h (0 Bft) 100,00 %
28.01.2023 22:10 -2,1 C -3,3 C -6,1 C 90 % 1031,5 hPa 0,0 l/m 0 min 0 min 0 W/m 0,0 km/h (0 Bft) 97,87 %
28.01.2023 22:12 -2,1 C -3,3 C -6,1 C 91 % 1031,5 hPa 0,0 l/m 0 min 0 min 0 W/m 0,0 km/h (0 Bft) 95,74 %
28.01.2023 22:14 -2,1 C -3,3 C -6,1 C 91 % 1031,6 hPa 0,0 l/m 0 min 0 min 0 W/m 0,0 km/h (0 Bft) 97,83 %
28.01.2023 22:16 -2,1 C -3,3 C -6,1 C 91 % 1031,6 hPa 0,0 l/m 0 min 0 min 0 W/m 0,0 km/h (0 Bft) 95,74 %
28.01.2023 22:18 -2,1 C -3,3 C -6,1 C 91 % 1031,5 hPa 0,0 l/m 0 min 0 min 0 W/m 0,0 km/h (0 Bft) 97,87 %
28.01.2023 22:20 -2,1 C -3,3 C -6,1 C 91 % 1031,4 hPa 0,0 l/m 0 min 0 min 0 W/m 3,2 km/h (1 Bft) 97,87 %
28.01.2023 22:22 -2,1 C -3,3 C -5,6 C 91 % 1031,4 hPa 0,0 l/m 0 min 0 min 0 W/m 0,0 km/h (0 Bft) 95,74 %
28.01.2023 22:24 -2,1 C -3,3 C -6,1 C 91 % 1031,4 hPa 0,0 l/m 0 min 0 min 0 W/m 0,0 km/h (0 Bft) 97,87 %
28.01.2023 22:26 -2,1 C -3,3 C -6,1 C 91 % 1031,4 hPa 0,0 l/m 0 min 0 min 0 W/m 0,0 km/h (0 Bft) 97,87 %
28.01.2023 22:28 -2,1 C -3,3 C -6,1 C 91 % 1031,4 hPa 0,0 l/m 0 min 0 min 0 W/m 0,0 km/h (0 Bft) 97,83 %
28.01.2023 22:30 -2,1 C -3,3 C -6,1 C 91 % 1031,3 hPa 0,0 l/m 0 min 0 min 0 W/m 0,0 km/h (0 Bft) 93,62 %
28.01.2023 22:32 -2,1 C -3,3 C -6,1 C 91 % 1031,3 hPa 0,0 l/m 0 min 0 min 0 W/m 0,0 km/h (0 Bft) 97,87 %
28.01.2023 22:34 -2,1 C -3,3 C -6,1 C 91 % 1031,4 hPa 0,0 l/m 0 min 0 min 0 W/m 0,0 km/h (0 Bft) 97,87 %
28.01.2023 22:36 -2,1 C -3,3 C -6,1 C 91 % 1031,4 hPa 0,0 l/m 0 min 0 min 0 W/m 0,0 km/h (0 Bft) 100,00 %
28.01.2023 22:38 -2,1 C -3,3 C -6,1 C 91 % 1031,4 hPa 0,0 l/m 0 min 0 min 0 W/m 0,0 km/h (0 Bft) 100,00 %
28.01.2023 22:40 -2,2 C -3,3 C -6,1 C 91 % 1031,4 hPa 0,0 l/m 0 min 0 min 0 W/m 0,0 km/h (0 Bft) 97,87 %
28.01.2023 22:42 -2,2 C -3,3 C -6,1 C 91 % 1031,3 hPa 0,0 l/m 0 min 0 min 0 W/m 0,0 km/h (0 Bft) 97,83 %
28.01.2023 22:44 -2,2 C -3,3 C -6,1 C 91 % 1031,3 hPa 0,0 l/m 0 min 0 min 0 W/m 0,0 km/h (0 Bft) 100,00 %
28.01.2023 22:46 -2,2 C -3,3 C -6,1 C 91 % 1031,3 hPa 0,0 l/m 0 min 0 min 0 W/m 0,0 km/h (0 Bft) 97,87 %
28.01.2023 22:48 -2,2 C -3,3 C -6,1 C 91 % 1031,3 hPa 0,0 l/m 0 min 0 min 0 W/m 0,0 km/h (0 Bft) 100,00 %
28.01.2023 22:50 -2,2 C -3,3 C -6,1 C 91 % 1031,3 hPa 0,0 l/m 0 min 0 min 0 W/m 0,0 km/h (0 Bft) 100,00 %
28.01.2023 22:52 -2,2 C -3,3 C -6,1 C 91 % 1031,3 hPa 0,0 l/m 0 min 0 min 0 W/m 0,0 km/h (0 Bft) 97,56 %
28.01.2023 22:54 -2,3 C -3,3 C -6,1 C 91 % 1031,3 hPa 0,0 l/m 0 min 0 min 0 W/m 0,0 km/h (0 Bft) 100,00 %
28.01.2023 22:56 -2,3 C -3,3 C -6,1 C 91 % 1031,3 hPa 0,0 l/m 0 min 0 min 0 W/m 0,0 km/h (0 Bft) 100,00 %
28.01.2023 22:58 -2,3 C -3,3 C -6,7 C 91 % 1031,3 hPa 0,0 l/m 0 min 0 min 0 W/m 0,0 km/h (0 Bft) 100,00 %
28.01.2023 23:00 -2,3 C -3,9 C -6,7 C 91 % 1031,3 hPa 0,0 l/m 0 min 0 min 0 W/m 0,0 km/h (0 Bft) 100,00 %
28.01.2023 23:02 -2,3 C -3,9 C -6,7 C 91 % 1031,3 hPa 0,0 l/m 0 min 0 min 0 W/m 0,0 km/h (0 Bft) 93,62 %
28.01.2023 23:04 -2,4 C -3,9 C -6,7 C 91 % 1031,3 hPa 0,0 l/m 0 min 0 min 0 W/m 0,0 km/h (0 Bft) 97,92 %
28.01.2023 23:06 -2,4 C -3,9 C -6,7 C 91 % 1031,3 hPa 0,0 l/m 0 min 0 min 0 W/m 0,0 km/h (0 Bft) 97,87 %
28.01.2023 23:08 -2,4 C -3,9 C -6,7 C 91 % 1031,4 hPa 0,0 l/m 0 min 0 min 0 W/m 0,0 km/h (0 Bft) 94,55 %
28.01.2023 23:10 -2,4 C -3,9 C -6,7 C 91 % 1031,4 hPa 0,0 l/m 0 min 0 min 0 W/m 0,0 km/h (0 Bft) 97,83 %
28.01.2023 23:12 -2,4 C -3,9 C -6,7 C 91 % 1031,5 hPa 0,0 l/m 0 min 0 min 0 W/m 0,0 km/h (0 Bft) 97,87 %
28.01.2023 23:14 -2,5 C -3,9 C -6,7 C 91 % 1031,5 hPa 0,0 l/m 0 min 0 min 0 W/m 0,0 km/h (0 Bft) 95,74 %
28.01.2023 23:16 -2,6 C -3,9 C -6,7 C 91 % 1031,4 hPa 0,0 l/m 0 min 0 min 0 W/m 0,0 km/h (0 Bft) 97,87 %
28.01.2023 23:18 -2,6 C -3,9 C -6,7 C 90 % 1031,4 hPa 0,0 l/m 0 min 0 min 0 W/m 0,0 km/h (0 Bft) 93,62 %
28.01.2023 23:20 -2,6 C -3,9 C -6,7 C 90 % 1031,5 hPa 0,0 l/m 0 min 0 min 0 W/m 0,0 km/h (0 Bft) 95,74 %
28.01.2023 23:22 -2,7 C -3,9 C -6,7 C 90 % 1031,5 hPa 0,0 l/m 0 min 0 min 0 W/m 0,0 km/h (0 Bft) 97,87 %
28.01.2023 23:24 -2,7 C -3,9 C -6,7 C 91 % 1031,5 hPa 0,0 l/m 0 min 0 min 0 W/m 0,0 km/h (0 Bft) 96,55 %
28.01.2023 23:29 -2,7 C -3,9 C -6,7 C 91 % 1031,4 hPa 0,0 l/m 0 min 0 min 0 W/m 0,0 km/h (0 Bft) 94,87 %
28.01.2023 23:30 -2,7 C -3,9 C -6,7 C 91 % 1031,4 hPa 0,0 l/m 0 min 0 min 0 W/m 0,0 km/h (0 Bft) 95,83 %
28.01.2023 23:32 -2,7 C -3,9 C -6,7 C 91 % 1031,5 hPa 0,0 l/m 0 min 0 min 0 W/m 0,0 km/h (0 Bft) 95,74 %
28.01.2023 23:34 -2,7 C -3,9 C -6,7 C 91 % 1031,6 hPa 0,0 l/m 0 min 0 min 0 W/m 0,0 km/h (0 Bft) 95,74 %
28.01.2023 23:36 -2,7 C -3,9 C -6,7 C 91 % 1031,6 hPa 0,0 l/m 0 min 0 min 0 W/m 0,0 km/h (0 Bft) 97,87 %
28.01.2023 23:38 -2,8 C -3,9 C -6,7 C 91 % 1031,7 hPa 0,0 l/m 0 min 0 min 0 W/m 0,0 km/h (0 Bft) 97,83 %
28.01.2023 23:40 -2,8 C -3,9 C -6,7 C 91 % 1031,6 hPa 0,0 l/m 0 min 0 min 0 W/m 0,0 km/h (0 Bft) 95,74 %
28.01.2023 23:42 -2,8 C -3,9 C -6,7 C 91 % 1031,6 hPa 0,0 l/m 0 min 0 min 0 W/m 0,0 km/h (0 Bft) 95,74 %
28.01.2023 23:44 -2,8 C -3,9 C -6,7 C 91 % 1031,5 hPa 0,0 l/m 0 min 0 min 0 W/m 0,0 km/h (0 Bft) 95,74 %
28.01.2023 23:46 -2,9 C -3,9 C -6,7 C 91 % 1031,5 hPa 0,0 l/m 0 min 0 min 0 W/m 0,0 km/h (0 Bft) 31,03 %
28.01.2023 23:48 -2,9 C -3,9 C -6,7 C 91 % 1031,6 hPa 0,0 l/m 0 min 0 min 0 W/m 0,0 km/h (0 Bft) 95,74 %
28.01.2023 23:50 -2,9 C -4,4 C -6,7 C 91 % 1031,6 hPa 0,0 l/m 0 min 0 min 0 W/m 0,0 km/h (0 Bft) 95,65 %
28.01.2023 23:55 -3,0 C -3,9 C -6,7 C 91 % 1031,5 hPa 0,0 l/m 0 min 0 min 0 W/m 0,0 km/h (0 Bft) 96,97 %
28.01.2023 23:56 -3,0 C -3,9 C -6,7 C 91 % 1031,5 hPa 0,0 l/m 0 min 0 min 0 W/m 0,0 km/h (0 Bft) 95,65 %
28.01.2023 23:58 -3,0 C -3,9 C -6,7 C 91 % 1031,5 hPa 0,0 l/m 0 min 0 min 0 W/m 0,0 km/h (0 Bft) 95,74 %
_ Min-Zeit 23:55 23:50 22:58 15:04 00:00 - - - - 00:16 23:46
Minimum _ -3,0 C -4,4 C -6,7 C 77 % 1028,4 hPa - - - - 0,0 km/h (0 Bft) 31,03 %
_ Max-Zeit 00:00 14:00 00:00 21:52 21:12 00:00 15:28 00:00 13:58 09:54 01:20
Maximum _ 3,1 C 3,3 C -0,6 C 91 % 1032,1 hPa 0,0 l/m 2 min 0 min 179 W/m 19,3 km/h
NW (3 Bft)
100,00 %
Durchschnitt _ 0,7 C 0,1 C -2,9 C 84 % 1030,4 hPa #0,0 l/m #20 min. #0 min. 69 W/m 5,3 km/h (1 Bft) 96,22 %
© 2023 W. Hausmann